AFR248 LFPG-RPLL
Flight info
| Callsign | AFR248 |
|---|---|
| Flight time | N/A |
| Altitude | 33000 |
| Route | LANVI DCT LUPEN/N0488F350 UM164 UTABA DCT INPUL DCT VATET DCT GOTAR DCT MOPUG DCT LUGEB DCT UDROS/N0483F370 UM859 KARDE UN644 ROLIN DCT TETRO DCT BARAD DCT LUSAL DCT RASAM L88 METKA B476 DARVA/K0911F370 T898 OGOLI/K0909F390 DCT SR L163 TISIB L141 KAMUD/K0906S1190 W186 SADAN Y1 OMBON/K0887S1250 W245 OVRAL B330 KWE W181 DUDIT A599 POU B330 TAMOT/N0483F410 B330 BIGEX DCT POVAM DCT NOPER V642 NOMAN A461 AVMUP W16 TADEL TADEL5R |
| Aircraft | A359/H-SDE2E3GHIJ3J4J5LM1ORWXY/LB1D1 |
Departure
| Time | N/A |
|---|---|
| Airport | Charles de Gaulle International Airport (LFPG) |
Arrival
| Time | 2026-04-30 13:34 |
|---|---|
| Airport | Ninoy Aquino International Airport (RPLL) |
| Time | Latitude | Longitude | Altitude | Speed | Heading |
|---|---|---|---|---|---|
| 2026-04-30 05:54 | 40.99573 | 55.77666 | 36800 ft | 495 kts | 90° |
| 2026-04-30 05:55 | 40.99936 | 55.82188 | 36800 ft | 494 kts | 75° |
| 2026-04-30 05:55 | 41.00905 | 55.86154 | 36805 ft | 491 kts | 70° |
| 2026-04-30 05:55 | 41.01142 | 55.87060 | 36799 ft | 490 kts | 71° |
| 2026-04-30 05:56 | 41.01959 | 55.91420 | 36804 ft | 490 kts | 82° |
| 2026-04-30 05:56 | 41.02372 | 55.95901 | 36803 ft | 490 kts | 86° |
| 2026-04-30 05:56 | 41.02479 | 56.00409 | 36953 ft | 489 kts | 90° |
| 2026-04-30 05:56 | 41.02448 | 56.04899 | 36997 ft | 488 kts | 91° |
| 2026-04-30 05:57 | 41.02166 | 56.13846 | 37000 ft | 485 kts | 93° |
| 2026-04-30 05:57 | 41.01795 | 56.22776 | 37000 ft | 485 kts | 93° |
| 2026-04-30 05:58 | 41.01429 | 56.31691 | 37001 ft | 485 kts | 93° |
| 2026-04-30 05:58 | 41.01076 | 56.40612 | 37000 ft | 485 kts | 93° |
| 2026-04-30 05:59 | 41.00783 | 56.49544 | 36993 ft | 485 kts | 88° |
| 2026-04-30 05:59 | 41.01170 | 56.54770 | 37000 ft | 484 kts | 82° |
| 2026-04-30 06:00 | 41.02068 | 56.62808 | 37000 ft | 484 kts | 81° |
| 2026-04-30 06:00 | 41.03148 | 56.71617 | 37000 ft | 484 kts | 81° |
| 2026-04-30 06:01 | 41.04220 | 56.80437 | 37000 ft | 486 kts | 81° |
| 2026-04-30 06:01 | 41.05269 | 56.89286 | 37000 ft | 486 kts | 81° |
| 2026-04-30 06:02 | 41.06302 | 56.98137 | 37000 ft | 485 kts | 81° |
| 2026-04-30 06:02 | 41.07308 | 57.06815 | 37000 ft | 485 kts | 81° |
| 2026-04-30 06:03 | 41.08328 | 57.15666 | 37000 ft | 485 kts | 81° |
| 2026-04-30 06:03 | 41.09340 | 57.24505 | 37000 ft | 485 kts | 81° |
| 2026-04-30 06:04 | 41.10344 | 57.33342 | 37000 ft | 485 kts | 81° |
| 2026-04-30 06:05 | 41.11847 | 57.46680 | 37000 ft | 485 kts | 81° |
| 2026-04-30 06:05 | 41.12834 | 57.55522 | 37000 ft | 485 kts | 82° |
| 2026-04-30 06:06 | 41.13816 | 57.64375 | 37000 ft | 485 kts | 82° |
| 2026-04-30 06:06 | 41.14790 | 57.73223 | 37000 ft | 485 kts | 82° |
| 2026-04-30 06:07 | 41.15758 | 57.82082 | 37000 ft | 485 kts | 82° |
| 2026-04-30 06:07 | 41.16719 | 57.90941 | 37000 ft | 485 kts | 82° |
| 2026-04-30 06:08 | 41.17673 | 57.99802 | 37000 ft | 485 kts | 82° |
| 2026-04-30 06:08 | 41.18614 | 58.08605 | 37000 ft | 485 kts | 82° |
| 2026-04-30 06:09 | 41.19568 | 58.17538 | 37000 ft | 485 kts | 82° |
| 2026-04-30 06:09 | 41.20344 | 58.24915 | 37000 ft | 485 kts | 82° |
| 2026-04-30 06:10 | 41.21270 | 58.33787 | 37000 ft | 485 kts | 82° |
| 2026-04-30 06:10 | 41.22193 | 58.42671 | 37000 ft | 485 kts | 82° |
| 2026-04-30 06:11 | 41.23109 | 58.51553 | 37000 ft | 485 kts | 82° |
| 2026-04-30 06:11 | 41.24018 | 58.60439 | 37000 ft | 485 kts | 82° |
| 2026-04-30 06:12 | 41.24919 | 58.69315 | 37000 ft | 485 kts | 82° |
| 2026-04-30 06:12 | 41.25814 | 58.78199 | 37000 ft | 485 kts | 82° |
| 2026-04-30 06:13 | 41.26702 | 58.87082 | 37000 ft | 485 kts | 82° |
| 2026-04-30 06:13 | 41.27584 | 58.95979 | 37000 ft | 485 kts | 82° |
| 2026-04-30 06:14 | 41.28453 | 59.04807 | 37000 ft | 485 kts | 82° |
| 2026-04-30 06:14 | 41.29321 | 59.13709 | 37000 ft | 485 kts | 82° |
| 2026-04-30 06:15 | 41.30182 | 59.22607 | 37000 ft | 485 kts | 83° |
| 2026-04-30 06:15 | 41.31037 | 59.31515 | 37000 ft | 485 kts | 83° |
| 2026-04-30 06:16 | 41.31885 | 59.40424 | 37000 ft | 485 kts | 83° |
| 2026-04-30 06:16 | 41.32726 | 59.49329 | 37000 ft | 485 kts | 83° |
| 2026-04-30 06:17 | 41.33560 | 59.58239 | 37000 ft | 485 kts | 83° |
| 2026-04-30 06:17 | 41.34212 | 59.67162 | 37002 ft | 485 kts | 91° |
| 2026-04-30 06:18 | 41.33955 | 59.76143 | 37000 ft | 485 kts | 93° |
| 2026-04-30 06:18 | 41.33526 | 59.85103 | 37000 ft | 485 kts | 94° |
| 2026-04-30 06:19 | 41.33072 | 59.94054 | 37000 ft | 485 kts | 94° |
| 2026-04-30 06:19 | 41.32625 | 60.03018 | 37000 ft | 485 kts | 94° |
| 2026-04-30 06:20 | 41.32184 | 60.11977 | 37000 ft | 485 kts | 94° |
| 2026-04-30 06:20 | 41.31755 | 60.20943 | 37000 ft | 485 kts | 94° |
| 2026-04-30 06:21 | 41.31321 | 60.29893 | 37000 ft | 485 kts | 94° |
| 2026-04-30 06:21 | 41.30877 | 60.38850 | 37000 ft | 485 kts | 94° |
| 2026-04-30 06:22 | 41.30823 | 60.47818 | 37001 ft | 485 kts | 86° |
| 2026-04-30 06:22 | 41.31319 | 60.56758 | 37000 ft | 485 kts | 85° |
| 2026-04-30 06:23 | 41.31875 | 60.65707 | 37000 ft | 485 kts | 85° |
| 2026-04-30 06:23 | 41.32376 | 60.74658 | 37000 ft | 485 kts | 86° |
| 2026-04-30 06:24 | 41.32835 | 60.83553 | 37000 ft | 485 kts | 86° |
| 2026-04-30 06:24 | 41.33283 | 60.92513 | 37000 ft | 485 kts | 86° |
| 2026-04-30 06:25 | 41.33728 | 61.01524 | 37000 ft | 485 kts | 86° |
| 2026-04-30 06:25 | 41.34165 | 61.10490 | 37000 ft | 485 kts | 86° |
| 2026-04-30 06:26 | 41.34597 | 61.19462 | 37000 ft | 485 kts | 86° |
| 2026-04-30 06:26 | 41.35018 | 61.28365 | 37000 ft | 485 kts | 86° |
| 2026-04-30 06:27 | 41.35435 | 61.37333 | 37000 ft | 485 kts | 86° |
| 2026-04-30 06:27 | 41.35850 | 61.46360 | 37000 ft | 485 kts | 86° |
| 2026-04-30 06:28 | 41.36257 | 61.55329 | 37000 ft | 485 kts | 86° |
| 2026-04-30 06:28 | 41.36653 | 61.64245 | 37000 ft | 485 kts | 86° |
| 2026-04-30 06:29 | 41.37045 | 61.73210 | 37000 ft | 485 kts | 86° |
| 2026-04-30 06:29 | 41.37431 | 61.82188 | 37000 ft | 485 kts | 86° |
| 2026-04-30 06:30 | 41.37809 | 61.91156 | 37000 ft | 485 kts | 86° |
| 2026-04-30 06:30 | 41.38182 | 62.00139 | 37000 ft | 486 kts | 87° |
| 2026-04-30 06:31 | 41.38547 | 62.09119 | 37000 ft | 486 kts | 87° |
| 2026-04-30 06:31 | 41.38905 | 62.18104 | 37000 ft | 486 kts | 87° |
| 2026-04-30 06:32 | 41.39255 | 62.27084 | 37000 ft | 486 kts | 87° |
| 2026-04-30 06:32 | 41.39599 | 62.36061 | 37000 ft | 486 kts | 87° |
| 2026-04-30 06:33 | 41.39936 | 62.45041 | 37000 ft | 485 kts | 87° |
| 2026-04-30 06:33 | 41.40271 | 62.54030 | 37000 ft | 486 kts | 87° |
| 2026-04-30 06:34 | 41.40624 | 62.63007 | 37000 ft | 486 kts | 87° |
| 2026-04-30 06:34 | 41.40975 | 62.71992 | 37000 ft | 486 kts | 87° |
| 2026-04-30 06:35 | 41.41316 | 62.80975 | 37000 ft | 486 kts | 87° |
| 2026-04-30 06:35 | 41.41648 | 62.89973 | 37000 ft | 486 kts | 87° |
| 2026-04-30 06:36 | 41.41974 | 62.98964 | 37000 ft | 486 kts | 87° |
| 2026-04-30 06:36 | 41.42292 | 63.07953 | 37000 ft | 486 kts | 87° |
| 2026-04-30 06:37 | 41.42603 | 63.16947 | 37000 ft | 486 kts | 87° |
| 2026-04-30 06:37 | 41.42905 | 63.25887 | 37000 ft | 486 kts | 87° |
| 2026-04-30 06:38 | 41.43203 | 63.34891 | 37000 ft | 486 kts | 87° |
| 2026-04-30 06:38 | 41.43493 | 63.43886 | 37000 ft | 486 kts | 88° |
| 2026-04-30 06:39 | 41.43777 | 63.52892 | 37000 ft | 486 kts | 88° |
| 2026-04-30 06:39 | 41.44054 | 63.61899 | 37000 ft | 487 kts | 88° |
| 2026-04-30 06:40 | 41.44322 | 63.70913 | 37000 ft | 487 kts | 88° |
| 2026-04-30 06:40 | 41.44570 | 63.79927 | 37000 ft | 487 kts | 88° |
| 2026-04-30 06:41 | 41.44809 | 63.88940 | 37000 ft | 487 kts | 88° |
| 2026-04-30 06:41 | 41.45044 | 63.98014 | 37000 ft | 487 kts | 88° |
| 2026-04-30 06:42 | 41.45272 | 64.07032 | 37000 ft | 487 kts | 88° |
| 2026-04-30 06:42 | 41.45494 | 64.16064 | 37000 ft | 488 kts | 88° |
| 2026-04-30 06:43 | 41.45708 | 64.25102 | 37000 ft | 488 kts | 88° |
| 2026-04-30 06:43 | 41.45916 | 64.34154 | 37000 ft | 489 kts | 88° |
| 2026-04-30 06:44 | 41.46116 | 64.43204 | 37000 ft | 488 kts | 88° |
| 2026-04-30 06:44 | 41.46310 | 64.52248 | 37000 ft | 488 kts | 88° |
| 2026-04-30 06:45 | 41.46495 | 64.61237 | 37000 ft | 488 kts | 88° |
| 2026-04-30 06:45 | 41.46673 | 64.70279 | 37000 ft | 488 kts | 88° |
| 2026-04-30 06:46 | 41.46845 | 64.79315 | 37000 ft | 487 kts | 88° |
| 2026-04-30 06:46 | 41.47010 | 64.88333 | 37000 ft | 487 kts | 89° |
| 2026-04-30 06:47 | 41.47167 | 64.97355 | 37000 ft | 486 kts | 89° |
| 2026-04-30 06:47 | 41.47318 | 65.06372 | 37000 ft | 486 kts | 89° |
| 2026-04-30 06:48 | 41.47461 | 65.15395 | 37000 ft | 486 kts | 89° |
| 2026-04-30 06:48 | 41.47597 | 65.24411 | 37000 ft | 486 kts | 89° |
| 2026-04-30 06:49 | 41.47726 | 65.33427 | 37000 ft | 486 kts | 89° |
| 2026-04-30 06:49 | 41.47848 | 65.42442 | 37000 ft | 486 kts | 89° |
| 2026-04-30 06:50 | 41.47963 | 65.51461 | 37000 ft | 486 kts | 89° |
| 2026-04-30 06:50 | 41.48071 | 65.60472 | 37000 ft | 486 kts | 89° |
| 2026-04-30 06:51 | 41.48172 | 65.69489 | 37000 ft | 486 kts | 89° |
| 2026-04-30 06:51 | 41.48267 | 65.78507 | 37000 ft | 486 kts | 89° |
| 2026-04-30 06:52 | 41.48325 | 65.87532 | 37000 ft | 486 kts | 90° |
| 2026-04-30 06:52 | 41.48335 | 65.96540 | 37000 ft | 486 kts | 90° |
| 2026-04-30 06:53 | 41.48340 | 66.04090 | 37000 ft | 486 kts | 90° |
| 2026-04-30 06:53 | 41.48346 | 66.13114 | 37000 ft | 486 kts | 90° |
| 2026-04-30 06:54 | 41.48349 | 66.22131 | 37000 ft | 486 kts | 90° |
| 2026-04-30 06:54 | 41.48346 | 66.31153 | 37000 ft | 486 kts | 90° |
| 2026-04-30 06:55 | 41.48335 | 66.40103 | 37000 ft | 486 kts | 90° |
| 2026-04-30 06:55 | 41.48317 | 66.49128 | 37000 ft | 486 kts | 90° |
| 2026-04-30 06:56 | 41.48292 | 66.58146 | 37000 ft | 486 kts | 90° |
| 2026-04-30 06:56 | 41.47717 | 66.67132 | 37000 ft | 486 kts | 97° |
| 2026-04-30 06:57 | 41.46781 | 66.76058 | 37000 ft | 486 kts | 98° |
| 2026-04-30 06:57 | 41.45807 | 66.84990 | 37000 ft | 486 kts | 98° |
| 2026-04-30 06:58 | 41.44853 | 66.93913 | 37000 ft | 486 kts | 98° |
| 2026-04-30 06:58 | 41.43908 | 67.02845 | 37000 ft | 487 kts | 98° |
| 2026-04-30 06:59 | 41.42960 | 67.11773 | 37000 ft | 487 kts | 98° |
| 2026-04-30 06:59 | 41.42005 | 67.20695 | 37000 ft | 487 kts | 98° |
| 2026-04-30 07:00 | 41.41040 | 67.29627 | 37000 ft | 487 kts | 98° |
| 2026-04-30 07:00 | 41.40070 | 67.38544 | 37000 ft | 487 kts | 98° |
| 2026-04-30 07:01 | 41.39091 | 67.47468 | 37000 ft | 487 kts | 98° |
| 2026-04-30 07:01 | 41.38107 | 67.56381 | 37000 ft | 487 kts | 98° |
| 2026-04-30 07:02 | 41.37115 | 67.65291 | 37000 ft | 487 kts | 98° |
| 2026-04-30 07:02 | 41.36116 | 67.74207 | 37000 ft | 487 kts | 98° |
| 2026-04-30 07:03 | 41.35112 | 67.83109 | 37000 ft | 486 kts | 98° |
| 2026-04-30 07:03 | 41.34100 | 67.92009 | 37000 ft | 486 kts | 98° |
| 2026-04-30 07:04 | 41.33081 | 68.00910 | 37000 ft | 486 kts | 98° |
| 2026-04-30 07:04 | 41.32056 | 68.09798 | 37000 ft | 486 kts | 98° |
| 2026-04-30 07:05 | 41.30507 | 68.23125 | 37000 ft | 486 kts | 99° |
| 2026-04-30 07:05 | 41.29463 | 68.32023 | 37000 ft | 487 kts | 99° |
| 2026-04-30 07:06 | 41.28413 | 68.40910 | 37000 ft | 487 kts | 99° |
| 2026-04-30 07:06 | 41.27357 | 68.49794 | 37000 ft | 487 kts | 99° |
| 2026-04-30 07:07 | 41.26338 | 68.58306 | 37000 ft | 487 kts | 99° |
| 2026-04-30 07:07 | 41.25268 | 68.67184 | 37000 ft | 487 kts | 99° |
| 2026-04-30 07:08 | 41.24191 | 68.76070 | 36600 ft | 487 kts | 99° |
| 2026-04-30 07:08 | 41.23106 | 68.84961 | 36727 ft | 495 kts | 99° |
| 2026-04-30 07:09 | 41.21990 | 68.94043 | 36890 ft | 501 kts | 100° |
| 2026-04-30 07:09 | 41.20853 | 69.03245 | 37034 ft | 508 kts | 100° |
| 2026-04-30 07:10 | 41.19703 | 69.12473 | 37216 ft | 513 kts | 100° |
| 2026-04-30 07:10 | 41.19115 | 69.17160 | 37336 ft | 515 kts | 100° |
| 2026-04-30 07:10 | 41.18525 | 69.21849 | 37483 ft | 516 kts | 100° |
| 2026-04-30 07:11 | 41.17975 | 69.26568 | 37636 ft | 517 kts | 97° |
| 2026-04-30 07:11 | 41.17559 | 69.31322 | 37806 ft | 518 kts | 96° |
| 2026-04-30 07:11 | 41.17211 | 69.36070 | 37922 ft | 520 kts | 95° |
| 2026-04-30 07:11 | 41.16874 | 69.40873 | 37935 ft | 523 kts | 95° |
| 2026-04-30 07:12 | 41.16155 | 69.50545 | 37942 ft | 530 kts | 96° |
| 2026-04-30 07:12 | 41.15352 | 69.60463 | 37948 ft | 534 kts | 96° |
| 2026-04-30 07:13 | 41.14524 | 69.70290 | 37960 ft | 536 kts | 96° |
| 2026-04-30 07:13 | 41.13698 | 69.79961 | 37967 ft | 525 kts | 96° |
| 2026-04-30 07:14 | 41.12877 | 69.89522 | 37989 ft | 520 kts | 96° |
| 2026-04-30 07:14 | 41.12051 | 69.99052 | 37995 ft | 520 kts | 97° |
| 2026-04-30 07:15 | 41.11218 | 70.08565 | 38005 ft | 520 kts | 96° |
| 2026-04-30 07:15 | 41.10379 | 70.18083 | 38010 ft | 520 kts | 97° |
| 2026-04-30 07:16 | 41.10022 | 70.27658 | 38024 ft | 520 kts | 86° |
| 2026-04-30 07:16 | 41.10654 | 70.37206 | 38018 ft | 520 kts | 83° |
| 2026-04-30 07:17 | 41.11439 | 70.46733 | 38018 ft | 519 kts | 83° |
| 2026-04-30 07:18 | 41.12526 | 70.61021 | 38023 ft | 519 kts | 84° |
| 2026-04-30 07:18 | 41.13198 | 70.70550 | 38025 ft | 518 kts | 84° |
| 2026-04-30 07:19 | 41.13851 | 70.79915 | 38016 ft | 518 kts | 84° |
| 2026-04-30 07:19 | 41.14504 | 70.89426 | 38003 ft | 517 kts | 84° |
| 2026-04-30 07:20 | 41.15153 | 70.98994 | 37994 ft | 517 kts | 84° |
| 2026-04-30 07:20 | 41.15786 | 71.08430 | 37974 ft | 517 kts | 85° |
| 2026-04-30 07:21 | 41.16415 | 71.17931 | 37969 ft | 517 kts | 85° |
| 2026-04-30 07:21 | 41.17037 | 71.27443 | 37954 ft | 517 kts | 85° |
| 2026-04-30 07:22 | 41.17956 | 71.41692 | 37939 ft | 517 kts | 85° |
| 2026-04-30 07:22 | 41.18560 | 71.51218 | 37931 ft | 517 kts | 85° |
| 2026-04-30 07:23 | 41.19059 | 71.59179 | 37926 ft | 517 kts | 85° |
| 2026-04-30 07:23 | 41.19647 | 71.68694 | 37931 ft | 517 kts | 85° |
| 2026-04-30 07:24 | 41.20228 | 71.78207 | 37930 ft | 517 kts | 85° |
| 2026-04-30 07:24 | 41.20800 | 71.87662 | 37928 ft | 517 kts | 85° |
| 2026-04-30 07:25 | 41.21357 | 71.97161 | 37935 ft | 516 kts | 85° |
| 2026-04-30 07:25 | 41.21904 | 72.06617 | 37939 ft | 516 kts | 85° |
| 2026-04-30 07:26 | 41.22451 | 72.16181 | 37944 ft | 516 kts | 85° |
| 2026-04-30 07:26 | 41.22988 | 72.25617 | 37955 ft | 516 kts | 85° |
| 2026-04-30 07:27 | 41.23527 | 72.35119 | 37966 ft | 515 kts | 85° |
| 2026-04-30 07:27 | 41.24055 | 72.44614 | 37971 ft | 515 kts | 85° |
| 2026-04-30 07:28 | 41.24577 | 72.54115 | 37983 ft | 515 kts | 85° |
| 2026-04-30 07:28 | 41.25093 | 72.63609 | 37991 ft | 515 kts | 85° |
| 2026-04-30 07:29 | 41.25593 | 72.73114 | 38000 ft | 516 kts | 85° |
| 2026-04-30 07:29 | 41.26081 | 72.82625 | 38008 ft | 516 kts | 86° |
| 2026-04-30 07:30 | 41.26800 | 72.96891 | 38025 ft | 515 kts | 86° |
| 2026-04-30 07:31 | 41.27267 | 73.06308 | 38029 ft | 515 kts | 86° |
| 2026-04-30 07:31 | 41.27731 | 73.15819 | 38038 ft | 516 kts | 86° |
| 2026-04-30 07:32 | 41.28187 | 73.25339 | 38043 ft | 516 kts | 86° |
| 2026-04-30 07:32 | 41.28636 | 73.34854 | 38049 ft | 516 kts | 86° |
| 2026-04-30 07:33 | 41.29076 | 73.44374 | 38061 ft | 516 kts | 86° |
| 2026-04-30 07:33 | 41.29509 | 73.53889 | 38065 ft | 516 kts | 86° |
| 2026-04-30 07:34 | 41.29936 | 73.63415 | 38066 ft | 516 kts | 86° |
| 2026-04-30 07:34 | 41.30351 | 73.72928 | 38068 ft | 515 kts | 86° |
| 2026-04-30 07:35 | 41.30759 | 73.82442 | 38069 ft | 515 kts | 86° |
| 2026-04-30 07:35 | 41.31160 | 73.91964 | 38070 ft | 515 kts | 86° |
| 2026-04-30 07:36 | 41.31554 | 74.01471 | 38066 ft | 515 kts | 86° |
| 2026-04-30 07:36 | 41.32158 | 74.10962 | 38070 ft | 515 kts | 83° |
| 2026-04-30 07:37 | 41.32910 | 74.20432 | 38069 ft | 514 kts | 83° |
| 2026-04-30 07:37 | 41.33627 | 74.29899 | 38056 ft | 514 kts | 83° |
| 2026-04-30 07:38 | 41.34303 | 74.39388 | 38077 ft | 515 kts | 84° |
| 2026-04-30 07:38 | 41.34957 | 74.48864 | 38078 ft | 514 kts | 84° |
| 2026-04-30 07:39 | 41.35604 | 74.58337 | 38071 ft | 514 kts | 84° |
| 2026-04-30 07:39 | 41.36245 | 74.67810 | 38066 ft | 513 kts | 84° |
| 2026-04-30 07:40 | 41.36878 | 74.77284 | 38060 ft | 513 kts | 84° |
| 2026-04-30 07:40 | 41.37503 | 74.86746 | 38065 ft | 513 kts | 84° |
| 2026-04-30 07:41 | 41.38120 | 74.96212 | 38075 ft | 513 kts | 84° |
| 2026-04-30 07:41 | 41.38728 | 75.05687 | 38071 ft | 513 kts | 84° |
| 2026-04-30 07:42 | 41.39325 | 75.15107 | 38057 ft | 513 kts | 84° |
| 2026-04-30 07:42 | 41.39919 | 75.24586 | 38063 ft | 514 kts | 84° |
| 2026-04-30 07:43 | 41.40507 | 75.34072 | 38045 ft | 515 kts | 84° |
| 2026-04-30 07:43 | 41.41086 | 75.43576 | 38041 ft | 515 kts | 84° |
| 2026-04-30 07:44 | 41.41659 | 75.53096 | 38019 ft | 515 kts | 84° |
| 2026-04-30 07:44 | 41.42224 | 75.62615 | 38013 ft | 515 kts | 84° |
| 2026-04-30 07:45 | 41.42781 | 75.72131 | 37999 ft | 515 kts | 84° |
| 2026-04-30 07:45 | 41.43335 | 75.81653 | 38004 ft | 515 kts | 84° |
| 2026-04-30 07:46 | 41.43876 | 75.91177 | 37988 ft | 515 kts | 84° |
| 2026-04-30 07:46 | 41.44409 | 76.00707 | 37991 ft | 516 kts | 85° |
| 2026-04-30 07:47 | 41.44936 | 76.10247 | 37993 ft | 516 kts | 85° |
| 2026-04-30 07:47 | 41.45456 | 76.19790 | 37996 ft | 516 kts | 85° |
| 2026-04-30 07:48 | 41.45969 | 76.29343 | 37999 ft | 517 kts | 85° |
| 2026-04-30 07:48 | 41.46473 | 76.38894 | 38004 ft | 517 kts | 85° |
| 2026-04-30 07:49 | 41.46970 | 76.48471 | 38005 ft | 517 kts | 85° |
| 2026-04-30 07:49 | 41.47459 | 76.58032 | 38006 ft | 517 kts | 85° |
| 2026-04-30 07:50 | 41.47940 | 76.67608 | 38015 ft | 514 kts | 85° |
| 2026-04-30 07:50 | 41.47984 | 76.68488 | 38015 ft | 513 kts | 85° |
| 2026-04-30 07:51 | 41.48367 | 76.76225 | 38028 ft | 517 kts | 85° |
| 2026-04-30 07:51 | 41.48834 | 76.85815 | 38040 ft | 517 kts | 85° |
| 2026-04-30 07:52 | 41.49292 | 76.95397 | 38049 ft | 517 kts | 85° |
| 2026-04-30 07:52 | 41.49742 | 77.04966 | 38057 ft | 517 kts | 85° |
| 2026-04-30 07:53 | 41.50185 | 77.14551 | 38071 ft | 518 kts | 85° |
| 2026-04-30 07:53 | 41.50621 | 77.24139 | 38075 ft | 517 kts | 85° |
| 2026-04-30 07:54 | 41.51048 | 77.33730 | 38090 ft | 518 kts | 85° |
| 2026-04-30 07:54 | 41.51467 | 77.43314 | 38094 ft | 518 kts | 85° |
| 2026-04-30 07:55 | 41.51878 | 77.52910 | 38097 ft | 518 kts | 85° |
| 2026-04-30 07:55 | 41.52281 | 77.62511 | 38102 ft | 518 kts | 85° |
| 2026-04-30 07:56 | 41.52677 | 77.72112 | 38101 ft | 518 kts | 85° |
| 2026-04-30 07:56 | 41.53064 | 77.81711 | 38104 ft | 518 kts | 85° |
| 2026-04-30 07:57 | 41.53443 | 77.91309 | 38103 ft | 518 kts | 85° |
| 2026-04-30 07:57 | 41.53814 | 78.00913 | 38098 ft | 518 kts | 85° |
| 2026-04-30 07:58 | 41.54177 | 78.10514 | 38097 ft | 518 kts | 86° |
| 2026-04-30 07:58 | 41.54532 | 78.20124 | 38098 ft | 518 kts | 86° |
| 2026-04-30 07:59 | 41.54880 | 78.29731 | 38097 ft | 518 kts | 86° |
| 2026-04-30 07:59 | 41.55221 | 78.39343 | 38089 ft | 518 kts | 86° |
| 2026-04-30 08:00 | 41.55716 | 78.53767 | 38074 ft | 519 kts | 86° |
| 2026-04-30 08:00 | 41.56037 | 78.63388 | 38072 ft | 519 kts | 86° |
| 2026-04-30 08:01 | 41.56349 | 78.73022 | 38063 ft | 520 kts | 86° |
| 2026-04-30 08:01 | 41.56417 | 78.82664 | 38057 ft | 522 kts | 95° |
| 2026-04-30 08:02 | 41.54372 | 78.95351 | 38038 ft | 524 kts | 104° |
| 2026-04-30 08:03 | 41.50253 | 79.15672 | 37989 ft | 525 kts | 104° |
| 2026-04-30 08:04 | 41.48355 | 79.25066 | 37960 ft | 525 kts | 104° |
| 2026-04-30 08:04 | 41.46768 | 79.32939 | 37943 ft | 524 kts | 104° |
| 2026-04-30 08:05 | 41.44870 | 79.42327 | 37923 ft | 524 kts | 104° |
| 2026-04-30 08:05 | 41.42966 | 79.51685 | 37909 ft | 523 kts | 104° |
| 2026-04-30 08:06 | 41.41054 | 79.61047 | 37898 ft | 523 kts | 104° |
| 2026-04-30 08:06 | 41.39148 | 79.70335 | 37899 ft | 523 kts | 104° |
| 2026-04-30 08:07 | 41.37208 | 79.79742 | 37885 ft | 523 kts | 104° |
| 2026-04-30 08:07 | 41.35274 | 79.89080 | 37878 ft | 524 kts | 104° |
| 2026-04-30 08:08 | 41.33340 | 79.98379 | 37876 ft | 524 kts | 105° |
| 2026-04-30 08:08 | 41.31390 | 80.07713 | 37857 ft | 524 kts | 105° |
| 2026-04-30 08:09 | 41.29431 | 80.17044 | 37863 ft | 524 kts | 105° |
| 2026-04-30 08:09 | 41.27462 | 80.26388 | 37862 ft | 524 kts | 105° |
| 2026-04-30 08:10 | 41.25493 | 80.35698 | 37838 ft | 524 kts | 105° |
| 2026-04-30 08:10 | 41.23499 | 80.45022 | 37853 ft | 524 kts | 105° |
| 2026-04-30 08:11 | 41.21491 | 80.54325 | 37839 ft | 524 kts | 105° |
| 2026-04-30 08:11 | 41.19477 | 80.63632 | 37843 ft | 524 kts | 105° |
| 2026-04-30 08:12 | 41.17459 | 80.72932 | 37844 ft | 524 kts | 105° |
| 2026-04-30 08:12 | 41.15435 | 80.82221 | 37841 ft | 524 kts | 105° |
| 2026-04-30 08:13 | 41.13402 | 80.91512 | 37839 ft | 524 kts | 105° |
| 2026-04-30 08:13 | 41.11360 | 81.00802 | 37837 ft | 524 kts | 105° |
| 2026-04-30 08:14 | 41.09313 | 81.10075 | 37842 ft | 524 kts | 105° |
| 2026-04-30 08:14 | 41.07257 | 81.19351 | 37841 ft | 524 kts | 106° |
| 2026-04-30 08:15 | 41.05197 | 81.28607 | 37843 ft | 524 kts | 106° |
| 2026-04-30 08:15 | 41.03126 | 81.37869 | 37839 ft | 524 kts | 106° |
| 2026-04-30 08:16 | 41.01050 | 81.47117 | 37845 ft | 524 kts | 106° |
| 2026-04-30 08:16 | 40.98981 | 81.56297 | 37846 ft | 524 kts | 106° |
| 2026-04-30 08:17 | 40.96888 | 81.65543 | 37844 ft | 524 kts | 106° |
| 2026-04-30 08:17 | 40.94949 | 81.74840 | 37846 ft | 524 kts | 103° |
| 2026-04-30 08:18 | 40.93249 | 81.84196 | 37846 ft | 524 kts | 103° |
| 2026-04-30 08:18 | 40.91529 | 81.93571 | 37844 ft | 524 kts | 103° |
| 2026-04-30 08:19 | 40.89758 | 82.02922 | 37844 ft | 524 kts | 104° |
| 2026-04-30 08:19 | 40.87962 | 82.12254 | 37846 ft | 524 kts | 104° |
| 2026-04-30 08:20 | 40.86155 | 82.21587 | 37845 ft | 524 kts | 104° |
| 2026-04-30 08:20 | 40.84343 | 82.30913 | 37846 ft | 524 kts | 104° |
| 2026-04-30 08:21 | 40.82523 | 82.40242 | 37848 ft | 524 kts | 104° |
| 2026-04-30 08:21 | 40.80696 | 82.49563 | 37845 ft | 525 kts | 104° |
| 2026-04-30 08:22 | 40.78861 | 82.58886 | 37844 ft | 525 kts | 104° |
| 2026-04-30 08:22 | 40.77019 | 82.68201 | 37845 ft | 525 kts | 104° |
| 2026-04-30 08:23 | 40.75170 | 82.77505 | 37844 ft | 525 kts | 105° |
| 2026-04-30 08:23 | 40.73309 | 82.86827 | 37847 ft | 525 kts | 105° |
| 2026-04-30 08:24 | 40.71443 | 82.96134 | 37847 ft | 525 kts | 105° |
| 2026-04-30 08:24 | 40.69567 | 83.05445 | 37846 ft | 526 kts | 105° |
| 2026-04-30 08:25 | 40.67683 | 83.14752 | 37843 ft | 526 kts | 105° |
| 2026-04-30 08:25 | 40.65791 | 83.24060 | 37850 ft | 526 kts | 105° |
| 2026-04-30 08:26 | 40.63890 | 83.33369 | 37848 ft | 527 kts | 105° |
| 2026-04-30 08:26 | 40.61979 | 83.42685 | 37852 ft | 527 kts | 105° |
| 2026-04-30 08:27 | 40.60062 | 83.51991 | 37851 ft | 527 kts | 105° |
| 2026-04-30 08:27 | 40.58135 | 83.61301 | 37852 ft | 528 kts | 105° |
| 2026-04-30 08:28 | 40.56199 | 83.70612 | 37854 ft | 528 kts | 106° |
| 2026-04-30 08:28 | 40.54254 | 83.79925 | 37857 ft | 528 kts | 106° |
| 2026-04-30 08:29 | 40.52299 | 83.89248 | 37856 ft | 529 kts | 106° |
| 2026-04-30 08:29 | 40.50353 | 83.98569 | 37855 ft | 529 kts | 105° |
| 2026-04-30 08:30 | 40.48466 | 84.07920 | 37855 ft | 530 kts | 105° |
| 2026-04-30 08:30 | 40.46581 | 84.17274 | 37859 ft | 530 kts | 105° |
| 2026-04-30 08:31 | 40.44674 | 84.26635 | 37860 ft | 531 kts | 106° |
| 2026-04-30 08:31 | 40.42755 | 84.35988 | 37861 ft | 531 kts | 106° |
| 2026-04-30 08:32 | 40.40821 | 84.45359 | 37861 ft | 531 kts | 106° |
| 2026-04-30 08:32 | 40.38884 | 84.54710 | 37861 ft | 532 kts | 106° |
| 2026-04-30 08:33 | 40.36933 | 84.64084 | 37866 ft | 532 kts | 106° |
| 2026-04-30 08:33 | 40.34975 | 84.73453 | 37863 ft | 533 kts | 106° |
| 2026-04-30 08:34 | 40.33009 | 84.82817 | 37869 ft | 533 kts | 106° |
| 2026-04-30 08:34 | 40.31031 | 84.92198 | 37872 ft | 534 kts | 107° |
| 2026-04-30 08:35 | 40.29044 | 85.01577 | 37870 ft | 534 kts | 107° |
| 2026-04-30 08:35 | 40.27049 | 85.10956 | 37872 ft | 535 kts | 107° |
| 2026-04-30 08:36 | 40.25044 | 85.20341 | 37872 ft | 535 kts | 107° |
| 2026-04-30 08:36 | 40.23033 | 85.29714 | 37873 ft | 535 kts | 107° |
| 2026-04-30 08:37 | 40.21013 | 85.39086 | 37871 ft | 535 kts | 107° |
| 2026-04-30 08:37 | 40.18984 | 85.48459 | 37872 ft | 536 kts | 107° |
| 2026-04-30 08:38 | 40.16946 | 85.57832 | 37879 ft | 536 kts | 107° |
| 2026-04-30 08:38 | 40.14900 | 85.67201 | 37883 ft | 536 kts | 107° |
| 2026-04-30 08:39 | 40.12843 | 85.76580 | 37880 ft | 537 kts | 108° |
| 2026-04-30 08:39 | 40.10778 | 85.85958 | 37882 ft | 537 kts | 108° |
| 2026-04-30 08:40 | 40.08706 | 85.95328 | 37884 ft | 538 kts | 108° |
| 2026-04-30 08:40 | 40.06575 | 86.04682 | 37886 ft | 537 kts | 110° |
| 2026-04-30 08:41 | 40.04062 | 86.13859 | 37887 ft | 537 kts | 112° |
| 2026-04-30 08:41 | 40.01465 | 86.22987 | 37888 ft | 537 kts | 112° |
| 2026-04-30 08:42 | 39.98913 | 86.32142 | 37889 ft | 537 kts | 112° |
| 2026-04-30 08:42 | 39.96392 | 86.41307 | 37889 ft | 537 kts | 112° |
| 2026-04-30 08:43 | 39.93868 | 86.50484 | 37894 ft | 537 kts | 112° |
| 2026-04-30 08:43 | 39.91766 | 86.58098 | 37890 ft | 537 kts | 112° |
| 2026-04-30 08:44 | 39.89227 | 86.67258 | 37893 ft | 537 kts | 112° |
| 2026-04-30 08:44 | 39.86681 | 86.76402 | 37893 ft | 537 kts | 112° |
| 2026-04-30 08:45 | 39.84129 | 86.85540 | 37895 ft | 537 kts | 112° |
| 2026-04-30 08:45 | 39.81568 | 86.94676 | 37891 ft | 538 kts | 112° |
| 2026-04-30 08:46 | 39.78997 | 87.03812 | 37892 ft | 538 kts | 113° |
| 2026-04-30 08:46 | 39.76420 | 87.12940 | 37889 ft | 538 kts | 113° |
| 2026-04-30 08:47 | 39.73836 | 87.22061 | 37891 ft | 538 kts | 113° |
| 2026-04-30 08:47 | 39.71243 | 87.31182 | 37885 ft | 538 kts | 113° |
| 2026-04-30 08:48 | 39.68643 | 87.40295 | 37888 ft | 538 kts | 113° |
| 2026-04-30 08:48 | 39.66036 | 87.49403 | 37886 ft | 538 kts | 113° |
| 2026-04-30 08:49 | 39.63421 | 87.58503 | 37903 ft | 538 kts | 114° |
| 2026-04-30 08:49 | 39.60795 | 87.67611 | 37905 ft | 539 kts | 114° |
| 2026-04-30 08:50 | 39.58165 | 87.76704 | 37898 ft | 539 kts | 114° |
| 2026-04-30 08:50 | 39.55527 | 87.85792 | 37898 ft | 539 kts | 114° |
| 2026-04-30 08:51 | 39.52877 | 87.94891 | 37896 ft | 539 kts | 114° |
| 2026-04-30 08:51 | 39.50220 | 88.03979 | 37897 ft | 540 kts | 114° |
| 2026-04-30 08:52 | 39.47558 | 88.13056 | 37889 ft | 540 kts | 114° |
| 2026-04-30 08:52 | 39.44884 | 88.22144 | 37892 ft | 540 kts | 114° |
| 2026-04-30 08:53 | 39.42205 | 88.31214 | 37896 ft | 540 kts | 114° |
| 2026-04-30 08:53 | 39.39517 | 88.40284 | 37889 ft | 540 kts | 115° |
| 2026-04-30 08:54 | 39.36823 | 88.49347 | 37895 ft | 540 kts | 115° |
| 2026-04-30 08:54 | 39.34121 | 88.58404 | 37898 ft | 540 kts | 115° |
| 2026-04-30 08:55 | 39.31415 | 88.67443 | 37902 ft | 540 kts | 115° |
| 2026-04-30 08:55 | 39.28701 | 88.76480 | 37903 ft | 540 kts | 115° |
| 2026-04-30 08:56 | 39.25982 | 88.85503 | 37917 ft | 539 kts | 115° |
| 2026-04-30 08:56 | 39.23274 | 88.94458 | 37921 ft | 539 kts | 115° |
| 2026-04-30 08:57 | 39.20541 | 89.03469 | 37930 ft | 539 kts | 116° |
| 2026-04-30 08:57 | 39.17789 | 89.12512 | 37939 ft | 538 kts | 116° |
| 2026-04-30 08:58 | 39.15069 | 89.21419 | 37948 ft | 538 kts | 116° |
| 2026-04-30 08:58 | 39.12320 | 89.30392 | 37960 ft | 538 kts | 116° |
| 2026-04-30 08:59 | 39.09571 | 89.39334 | 37974 ft | 537 kts | 116° |
| 2026-04-30 08:59 | 39.06817 | 89.48267 | 37986 ft | 537 kts | 116° |
| 2026-04-30 09:00 | 39.04051 | 89.57206 | 37996 ft | 537 kts | 116° |
| 2026-04-30 09:00 | 39.01285 | 89.66120 | 38007 ft | 537 kts | 116° |
| 2026-04-30 09:01 | 38.98510 | 89.75032 | 38010 ft | 537 kts | 116° |
| 2026-04-30 09:01 | 38.95727 | 89.83938 | 38026 ft | 537 kts | 116° |
| 2026-04-30 09:02 | 38.91541 | 89.97276 | 38030 ft | 537 kts | 116° |
| 2026-04-30 09:02 | 38.88741 | 90.06173 | 38033 ft | 537 kts | 116° |
| 2026-04-30 09:03 | 38.86044 | 90.14711 | 38037 ft | 538 kts | 116° |
| 2026-04-30 09:03 | 38.83228 | 90.23600 | 38038 ft | 538 kts | 116° |
| 2026-04-30 09:04 | 38.80401 | 90.32494 | 38041 ft | 538 kts | 116° |
| 2026-04-30 09:04 | 38.77570 | 90.41380 | 38039 ft | 538 kts | 117° |
| 2026-04-30 09:05 | 38.74733 | 90.50253 | 38040 ft | 538 kts | 117° |
| 2026-04-30 09:05 | 38.71889 | 90.59116 | 38033 ft | 538 kts | 117° |
| 2026-04-30 09:06 | 38.69059 | 90.67914 | 38024 ft | 538 kts | 117° |
| 2026-04-30 09:06 | 38.66312 | 90.76846 | 38016 ft | 540 kts | 114° |
| 2026-04-30 09:07 | 38.63842 | 90.85933 | 37993 ft | 541 kts | 113° |
| 2026-04-30 09:07 | 38.61381 | 90.95010 | 37972 ft | 541 kts | 113° |
| 2026-04-30 09:08 | 38.58858 | 91.04090 | 37973 ft | 542 kts | 114° |
| 2026-04-30 09:08 | 38.56305 | 91.13151 | 37950 ft | 543 kts | 114° |
| 2026-04-30 09:09 | 38.53737 | 91.22217 | 37943 ft | 543 kts | 114° |
| 2026-04-30 09:09 | 38.51158 | 91.31303 | 37929 ft | 544 kts | 114° |
| 2026-04-30 09:10 | 38.48571 | 91.40391 | 37916 ft | 545 kts | 114° |
| 2026-04-30 09:10 | 38.45977 | 91.49473 | 37908 ft | 545 kts | 114° |
| 2026-04-30 09:11 | 38.43376 | 91.58550 | 37900 ft | 545 kts | 114° |
| 2026-04-30 09:11 | 38.40764 | 91.67630 | 37893 ft | 545 kts | 114° |
| 2026-04-30 09:12 | 38.38142 | 91.76717 | 37891 ft | 546 kts | 114° |
| 2026-04-30 09:12 | 38.35516 | 91.85784 | 37885 ft | 546 kts | 114° |
| 2026-04-30 09:13 | 38.32877 | 91.94868 | 37879 ft | 547 kts | 114° |
| 2026-04-30 09:13 | 38.30231 | 92.03942 | 37872 ft | 547 kts | 114° |
| 2026-04-30 09:14 | 38.27573 | 92.13028 | 37875 ft | 548 kts | 114° |
| 2026-04-30 09:14 | 38.24908 | 92.22110 | 37869 ft | 548 kts | 114° |
| 2026-04-30 09:15 | 38.22235 | 92.31185 | 37873 ft | 548 kts | 114° |
| 2026-04-30 09:15 | 38.19557 | 92.40251 | 37872 ft | 548 kts | 114° |
| 2026-04-30 09:16 | 38.16866 | 92.49327 | 37873 ft | 548 kts | 114° |
| 2026-04-30 09:16 | 38.13912 | 92.58213 | 37876 ft | 545 kts | 120° |
| 2026-04-30 09:17 | 38.10563 | 92.66834 | 37880 ft | 544 kts | 121° |
| 2026-04-30 09:17 | 38.07240 | 92.75411 | 37875 ft | 545 kts | 120° |
| 2026-04-30 09:18 | 38.03960 | 92.84087 | 37878 ft | 545 kts | 120° |
| 2026-04-30 09:18 | 38.00707 | 92.92771 | 37874 ft | 545 kts | 119° |
| 2026-04-30 09:19 | 37.97447 | 93.01458 | 37872 ft | 545 kts | 119° |
| 2026-04-30 09:19 | 37.94177 | 93.10135 | 37865 ft | 545 kts | 120° |
| 2026-04-30 09:20 | 37.90899 | 93.18802 | 37864 ft | 546 kts | 120° |
| 2026-04-30 09:20 | 37.87611 | 93.27471 | 37861 ft | 546 kts | 120° |
| 2026-04-30 09:21 | 37.84316 | 93.36134 | 37853 ft | 546 kts | 120° |
| 2026-04-30 09:21 | 37.81013 | 93.44794 | 37848 ft | 547 kts | 120° |
| 2026-04-30 09:22 | 37.77706 | 93.53441 | 37843 ft | 547 kts | 120° |
| 2026-04-30 09:22 | 37.74383 | 93.62104 | 37834 ft | 547 kts | 120° |
| 2026-04-30 09:23 | 37.71057 | 93.70752 | 37825 ft | 548 kts | 120° |
| 2026-04-30 09:23 | 37.67719 | 93.79403 | 37821 ft | 548 kts | 120° |
| 2026-04-30 09:24 | 37.64376 | 93.88046 | 37813 ft | 548 kts | 120° |
| 2026-04-30 09:24 | 37.61032 | 93.96671 | 37804 ft | 547 kts | 120° |
| 2026-04-30 09:25 | 37.57680 | 94.05288 | 37797 ft | 547 kts | 120° |
| 2026-04-30 09:25 | 37.54320 | 94.13902 | 37792 ft | 547 kts | 120° |
| 2026-04-30 09:26 | 37.51532 | 94.21033 | 37790 ft | 547 kts | 120° |
| 2026-04-30 09:26 | 37.48168 | 94.29616 | 37787 ft | 546 kts | 120° |
| 2026-04-30 09:27 | 37.44801 | 94.38181 | 37784 ft | 546 kts | 120° |
| 2026-04-30 09:27 | 37.41434 | 94.46723 | 37781 ft | 545 kts | 120° |
| 2026-04-30 09:28 | 37.38059 | 94.55264 | 37777 ft | 545 kts | 120° |
| 2026-04-30 09:28 | 37.34677 | 94.63797 | 37780 ft | 544 kts | 120° |
| 2026-04-30 09:29 | 37.31296 | 94.72306 | 37784 ft | 544 kts | 120° |
| 2026-04-30 09:29 | 37.27916 | 94.80791 | 37780 ft | 544 kts | 120° |
| 2026-04-30 09:30 | 37.24517 | 94.89299 | 37767 ft | 543 kts | 120° |
| 2026-04-30 09:30 | 37.21127 | 94.97760 | 37776 ft | 543 kts | 120° |
| 2026-04-30 09:31 | 37.17733 | 95.06211 | 37775 ft | 542 kts | 120° |
| 2026-04-30 09:31 | 37.14337 | 95.14643 | 37770 ft | 541 kts | 120° |
| 2026-04-30 09:32 | 37.10935 | 95.23069 | 37771 ft | 541 kts | 120° |
| 2026-04-30 09:32 | 37.07540 | 95.31455 | 37774 ft | 540 kts | 120° |
| 2026-04-30 09:33 | 37.04139 | 95.39832 | 37768 ft | 539 kts | 120° |
| 2026-04-30 09:33 | 37.00746 | 95.48170 | 37767 ft | 538 kts | 120° |
| 2026-04-30 09:34 | 36.97403 | 95.56475 | 37766 ft | 537 kts | 120° |
| 2026-04-30 09:34 | 36.94125 | 95.64854 | 37766 ft | 537 kts | 119° |
| 2026-04-30 09:35 | 36.90852 | 95.73214 | 37758 ft | 536 kts | 120° |
| 2026-04-30 09:35 | 36.87555 | 95.81564 | 37756 ft | 535 kts | 120° |
| 2026-04-30 09:36 | 36.84255 | 95.89881 | 37749 ft | 534 kts | 120° |
| 2026-04-30 09:36 | 36.80932 | 95.98231 | 37738 ft | 533 kts | 120° |
| 2026-04-30 09:37 | 36.77627 | 96.06515 | 37785 ft | 534 kts | 120° |
| 2026-04-30 09:37 | 36.75981 | 96.10664 | 38011 ft | 533 kts | 120° |
| 2026-04-30 09:37 | 36.74340 | 96.14812 | 38249 ft | 533 kts | 120° |
| 2026-04-30 09:38 | 36.72718 | 96.18912 | 38436 ft | 533 kts | 120° |
| 2026-04-30 09:38 | 36.71080 | 96.23049 | 38594 ft | 532 kts | 120° |
| 2026-04-30 09:38 | 36.69437 | 96.27189 | 38712 ft | 534 kts | 120° |
| 2026-04-30 09:38 | 36.67766 | 96.31392 | 38710 ft | 535 kts | 120° |
| 2026-04-30 09:39 | 36.64485 | 96.39626 | 38702 ft | 534 kts | 120° |
| 2026-04-30 09:39 | 36.61176 | 96.47912 | 38696 ft | 534 kts | 120° |
| 2026-04-30 09:40 | 36.57868 | 96.56171 | 38686 ft | 533 kts | 120° |
| 2026-04-30 09:40 | 36.54566 | 96.64440 | 38683 ft | 533 kts | 120° |
| 2026-04-30 09:41 | 36.51319 | 96.72725 | 38683 ft | 533 kts | 120° |
| 2026-04-30 09:41 | 36.48072 | 96.81006 | 38680 ft | 533 kts | 120° |
| 2026-04-30 09:42 | 36.44813 | 96.89269 | 38683 ft | 533 kts | 120° |
| 2026-04-30 09:42 | 36.41546 | 96.97515 | 38683 ft | 533 kts | 120° |
| 2026-04-30 09:43 | 36.38262 | 97.05780 | 38689 ft | 533 kts | 120° |
| 2026-04-30 09:43 | 36.34976 | 97.14031 | 38692 ft | 534 kts | 120° |
| 2026-04-30 09:44 | 36.31678 | 97.22291 | 38698 ft | 534 kts | 120° |
| 2026-04-30 09:44 | 36.28374 | 97.30545 | 38705 ft | 534 kts | 120° |
| 2026-04-30 09:45 | 36.25064 | 97.38794 | 38712 ft | 534 kts | 120° |
| 2026-04-30 09:45 | 36.21755 | 97.47018 | 38718 ft | 534 kts | 120° |
| 2026-04-30 09:46 | 36.18434 | 97.55251 | 38726 ft | 534 kts | 121° |
| 2026-04-30 09:46 | 36.15109 | 97.63475 | 38740 ft | 534 kts | 121° |
| 2026-04-30 09:47 | 36.11856 | 97.71753 | 38756 ft | 535 kts | 119° |
| 2026-04-30 09:47 | 36.08670 | 97.80080 | 38789 ft | 536 kts | 119° |
| 2026-04-30 09:48 | 36.05469 | 97.88404 | 38801 ft | 536 kts | 119° |
| 2026-04-30 09:48 | 36.02239 | 97.96731 | 38812 ft | 537 kts | 120° |
| 2026-04-30 09:49 | 35.99022 | 98.04984 | 38821 ft | 537 kts | 119° |
| 2026-04-30 09:49 | 35.95777 | 98.13288 | 38831 ft | 537 kts | 120° |
| 2026-04-30 09:50 | 35.92524 | 98.21594 | 38839 ft | 538 kts | 119° |
| 2026-04-30 09:50 | 35.89264 | 98.29892 | 38847 ft | 538 kts | 120° |
| 2026-04-30 09:51 | 35.85992 | 98.38205 | 38850 ft | 540 kts | 119° |
| 2026-04-30 09:51 | 35.82708 | 98.46525 | 38849 ft | 540 kts | 119° |
| 2026-04-30 09:52 | 35.79419 | 98.54839 | 38843 ft | 540 kts | 119° |
| 2026-04-30 09:52 | 35.76122 | 98.63149 | 38839 ft | 540 kts | 119° |
| 2026-04-30 09:53 | 35.72821 | 98.71446 | 38834 ft | 540 kts | 119° |
| 2026-04-30 09:53 | 35.69513 | 98.79743 | 38827 ft | 540 kts | 119° |
| 2026-04-30 09:54 | 35.66197 | 98.88033 | 38820 ft | 540 kts | 119° |
| 2026-04-30 09:54 | 35.62879 | 98.96313 | 38815 ft | 539 kts | 119° |
| 2026-04-30 09:55 | 35.59561 | 99.04573 | 38813 ft | 539 kts | 119° |
| 2026-04-30 09:55 | 35.56232 | 99.12839 | 38814 ft | 539 kts | 119° |
| 2026-04-30 09:56 | 35.52901 | 99.21084 | 38812 ft | 539 kts | 119° |
| 2026-04-30 09:56 | 35.49562 | 99.29333 | 38814 ft | 540 kts | 119° |
| 2026-04-30 09:57 | 35.46243 | 99.37510 | 38810 ft | 540 kts | 119° |
| 2026-04-30 09:57 | 35.42888 | 99.45750 | 38802 ft | 540 kts | 119° |
| 2026-04-30 09:58 | 35.39507 | 99.54039 | 38784 ft | 540 kts | 120° |
| 2026-04-30 09:58 | 35.36143 | 99.62273 | 38771 ft | 541 kts | 120° |
| 2026-04-30 09:59 | 35.29393 | 99.78716 | 38738 ft | 539 kts | 120° |
| 2026-04-30 10:00 | 35.24326 | 99.91008 | 38703 ft | 538 kts | 120° |
| 2026-04-30 10:01 | 35.19257 | 100.03259 | 38684 ft | 537 kts | 120° |
| 2026-04-30 10:02 | 35.14215 | 100.15402 | 38682 ft | 533 kts | 120° |
| 2026-04-30 10:02 | 35.10858 | 100.23460 | 38677 ft | 533 kts | 121° |
| 2026-04-30 10:03 | 35.07486 | 100.31531 | 38674 ft | 533 kts | 121° |
| 2026-04-30 10:03 | 35.04134 | 100.39539 | 38676 ft | 534 kts | 121° |
| 2026-04-30 10:04 | 35.00727 | 100.47662 | 38677 ft | 534 kts | 121° |
| 2026-04-30 10:04 | 34.97359 | 100.55670 | 38686 ft | 534 kts | 121° |
| 2026-04-30 10:05 | 34.93965 | 100.63719 | 38686 ft | 534 kts | 120° |
| 2026-04-30 10:05 | 34.90570 | 100.71752 | 38700 ft | 534 kts | 121° |
| 2026-04-30 10:06 | 34.87163 | 100.79793 | 38702 ft | 533 kts | 121° |
| 2026-04-30 10:06 | 34.83759 | 100.87808 | 38712 ft | 532 kts | 121° |
| 2026-04-30 10:07 | 34.80360 | 100.95796 | 38706 ft | 532 kts | 120° |
| 2026-04-30 10:07 | 34.76943 | 101.03800 | 38716 ft | 532 kts | 120° |
| 2026-04-30 10:08 | 34.73524 | 101.11795 | 38702 ft | 532 kts | 120° |
| 2026-04-30 10:08 | 34.70095 | 101.19797 | 38703 ft | 533 kts | 120° |
| 2026-04-30 10:09 | 34.67249 | 101.26423 | 38689 ft | 534 kts | 120° |
| 2026-04-30 10:09 | 34.63809 | 101.34414 | 38683 ft | 534 kts | 120° |
| 2026-04-30 10:10 | 34.60367 | 101.42389 | 38682 ft | 534 kts | 120° |
| 2026-04-30 10:10 | 34.56916 | 101.50369 | 38675 ft | 534 kts | 120° |
| 2026-04-30 10:11 | 34.53461 | 101.58340 | 38673 ft | 534 kts | 120° |
| 2026-04-30 10:11 | 34.49997 | 101.66312 | 38668 ft | 535 kts | 120° |
| 2026-04-30 10:12 | 34.46522 | 101.74289 | 38661 ft | 535 kts | 120° |
| 2026-04-30 10:12 | 34.43043 | 101.82262 | 38655 ft | 535 kts | 120° |
| 2026-04-30 10:13 | 34.39554 | 101.90234 | 38643 ft | 537 kts | 120° |
| 2026-04-30 10:13 | 34.36043 | 101.98240 | 38641 ft | 538 kts | 120° |
| 2026-04-30 10:14 | 34.32526 | 102.06237 | 38629 ft | 539 kts | 120° |
| 2026-04-30 10:14 | 34.27229 | 102.18251 | 38625 ft | 540 kts | 121° |
| 2026-04-30 10:15 | 34.23676 | 102.26287 | 38614 ft | 541 kts | 121° |
| 2026-04-30 10:15 | 34.20132 | 102.34287 | 38613 ft | 541 kts | 121° |
| 2026-04-30 10:16 | 34.16599 | 102.42329 | 38603 ft | 542 kts | 120° |
| 2026-04-30 10:17 | 34.11445 | 102.54481 | 38599 ft | 542 kts | 120° |
| 2026-04-30 10:17 | 34.06240 | 102.66674 | 38602 ft | 543 kts | 120° |
| 2026-04-30 10:18 | 34.02786 | 102.74704 | 38603 ft | 544 kts | 120° |
| 2026-04-30 10:19 | 33.97546 | 102.86853 | 38605 ft | 545 kts | 120° |
| 2026-04-30 10:19 | 33.94038 | 102.94960 | 38600 ft | 546 kts | 120° |
| 2026-04-30 10:20 | 33.90525 | 103.03061 | 38606 ft | 546 kts | 120° |
| 2026-04-30 10:20 | 33.85251 | 103.15190 | 38621 ft | 545 kts | 120° |
| 2026-04-30 10:21 | 33.81731 | 103.23253 | 38633 ft | 545 kts | 120° |
| 2026-04-30 10:21 | 33.78207 | 103.31308 | 38634 ft | 545 kts | 120° |
| 2026-04-30 10:22 | 33.74679 | 103.39364 | 38654 ft | 543 kts | 119° |
| 2026-04-30 10:22 | 33.71157 | 103.47392 | 38670 ft | 543 kts | 120° |
| 2026-04-30 10:23 | 33.67633 | 103.55399 | 38687 ft | 542 kts | 119° |
| 2026-04-30 10:23 | 33.64108 | 103.63393 | 38720 ft | 541 kts | 119° |
| 2026-04-30 10:24 | 33.60597 | 103.71342 | 38731 ft | 538 kts | 120° |
| 2026-04-30 10:24 | 33.57075 | 103.79283 | 38757 ft | 539 kts | 120° |
| 2026-04-30 10:25 | 33.53548 | 103.87218 | 38782 ft | 539 kts | 120° |
| 2026-04-30 10:25 | 33.50012 | 103.95156 | 38797 ft | 539 kts | 120° |
| 2026-04-30 10:26 | 33.46501 | 104.03035 | 38818 ft | 540 kts | 120° |
| 2026-04-30 10:26 | 33.42929 | 104.11020 | 38835 ft | 540 kts | 120° |
| 2026-04-30 10:27 | 33.39369 | 104.18950 | 38834 ft | 540 kts | 120° |
| 2026-04-30 10:27 | 33.34887 | 104.26032 | 38862 ft | 531 kts | 140° |
| 2026-04-30 10:28 | 33.32015 | 104.28756 | 38861 ft | 524 kts | 152° |
| 2026-04-30 10:28 | 33.28843 | 104.30851 | 38860 ft | 519 kts | 159° |
| 2026-04-30 10:28 | 33.22329 | 104.34426 | 38889 ft | 518 kts | 161° |
| 2026-04-30 10:29 | 33.15713 | 104.37866 | 38893 ft | 519 kts | 161° |
| 2026-04-30 10:29 | 33.09105 | 104.41340 | 38909 ft | 518 kts | 161° |
| 2026-04-30 10:30 | 33.02516 | 104.44842 | 38916 ft | 518 kts | 161° |
| 2026-04-30 10:30 | 32.95931 | 104.48351 | 38929 ft | 519 kts | 161° |
| 2026-04-30 10:31 | 32.89331 | 104.51861 | 38941 ft | 520 kts | 161° |
| 2026-04-30 10:31 | 32.82727 | 104.55368 | 38960 ft | 521 kts | 161° |
| 2026-04-30 10:32 | 32.75986 | 104.58323 | 38953 ft | 511 kts | 174° |
| 2026-04-30 10:32 | 32.69014 | 104.59218 | 38964 ft | 502 kts | 183° |
| 2026-04-30 10:33 | 32.62043 | 104.59545 | 38970 ft | 502 kts | 185° |
| 2026-04-30 10:33 | 32.55047 | 104.59791 | 38979 ft | 504 kts | 185° |
| 2026-04-30 10:34 | 32.48017 | 104.60083 | 38997 ft | 506 kts | 185° |
| 2026-04-30 10:34 | 32.40993 | 104.60403 | 38981 ft | 505 kts | 185° |
| 2026-04-30 10:35 | 32.33967 | 104.60772 | 38995 ft | 506 kts | 184° |
| 2026-04-30 10:35 | 32.26925 | 104.61166 | 38988 ft | 506 kts | 184° |
| 2026-04-30 10:36 | 32.19880 | 104.61552 | 38983 ft | 506 kts | 185° |
| 2026-04-30 10:36 | 30.32864 | 104.55642 | 38911 ft | 488 kts | 202° |
| 2026-04-30 10:37 | 30.21004 | 104.78415 | 39528 ft | 477 kts | 208° |
| 2026-04-30 10:37 | 29.52244 | 104.57958 | 39504 ft | 476 kts | 210° |
| 2026-04-30 10:37 | 29.49017 | 104.56905 | 39518 ft | 489 kts | 198° |
| 2026-04-30 10:37 | 29.45635 | 104.56233 | 39383 ft | 499 kts | 193° |
| 2026-04-30 10:38 | 29.42135 | 104.56029 | 39104 ft | 507 kts | 184° |
| 2026-04-30 10:38 | 29.38606 | 104.56529 | 38948 ft | 516 kts | 172° |
| 2026-04-30 10:38 | 29.35171 | 104.57807 | 38931 ft | 525 kts | 160° |
| 2026-04-30 10:38 | 29.31954 | 104.59845 | 38932 ft | 532 kts | 149° |
| 2026-04-30 10:39 | 29.29124 | 104.62589 | 38932 ft | 538 kts | 134° |
| 2026-04-30 10:39 | 29.26754 | 104.65918 | 38928 ft | 540 kts | 128° |
| 2026-04-30 10:39 | 29.22338 | 104.72903 | 38927 ft | 542 kts | 128° |
| 2026-04-30 10:40 | 29.17686 | 104.79665 | 38925 ft | 540 kts | 133° |
| 2026-04-30 10:40 | 29.12658 | 104.85967 | 38926 ft | 538 kts | 137° |
| 2026-04-30 10:41 | 29.07175 | 104.91752 | 38926 ft | 535 kts | 143° |
| 2026-04-30 10:41 | 29.01245 | 104.96865 | 38922 ft | 532 kts | 150° |
| 2026-04-30 10:42 | 28.94896 | 105.01125 | 38920 ft | 527 kts | 158° |
| 2026-04-30 10:42 | 28.88219 | 105.04515 | 38919 ft | 526 kts | 159° |
| 2026-04-30 10:43 | 28.82030 | 105.09072 | 38917 ft | 534 kts | 144° |
| 2026-04-30 10:43 | 28.76074 | 105.14112 | 38930 ft | 531 kts | 152° |
| 2026-04-30 10:44 | 28.69765 | 105.18476 | 38912 ft | 530 kts | 154° |
| 2026-04-30 10:44 | 28.63322 | 105.22543 | 38916 ft | 529 kts | 156° |
| 2026-04-30 10:45 | 28.56823 | 105.26468 | 38918 ft | 529 kts | 156° |
| 2026-04-30 10:45 | 28.50307 | 105.30374 | 38923 ft | 530 kts | 156° |
| 2026-04-30 10:46 | 28.43791 | 105.34290 | 38917 ft | 530 kts | 156° |
| 2026-04-30 10:46 | 28.37283 | 105.38207 | 38920 ft | 529 kts | 156° |
| 2026-04-30 10:47 | 28.30771 | 105.42122 | 38921 ft | 529 kts | 156° |
| 2026-04-30 10:47 | 28.24270 | 105.46024 | 38927 ft | 529 kts | 156° |
| 2026-04-30 10:48 | 28.17761 | 105.49927 | 38936 ft | 529 kts | 156° |
| 2026-04-30 10:48 | 28.11246 | 105.53825 | 38945 ft | 529 kts | 156° |
| 2026-04-30 10:49 | 28.04568 | 105.57188 | 38954 ft | 521 kts | 169° |
| 2026-04-30 10:49 | 27.97522 | 105.58721 | 38952 ft | 514 kts | 176° |
| 2026-04-30 10:50 | 27.90449 | 105.59827 | 38960 ft | 513 kts | 178° |
| 2026-04-30 10:50 | 27.83370 | 105.60915 | 38958 ft | 515 kts | 175° |
| 2026-04-30 10:51 | 27.77635 | 105.62882 | 38968 ft | 524 kts | 159° |
| 2026-04-30 10:51 | 27.71108 | 105.66609 | 38971 ft | 526 kts | 155° |
| 2026-04-30 10:52 | 27.64662 | 105.70537 | 38987 ft | 526 kts | 156° |
| 2026-04-30 10:52 | 27.58090 | 105.74134 | 38981 ft | 524 kts | 158° |
| 2026-04-30 10:53 | 27.51485 | 105.77616 | 38987 ft | 524 kts | 159° |
| 2026-04-30 10:53 | 27.44900 | 105.81122 | 38996 ft | 524 kts | 158° |
| 2026-04-30 10:54 | 27.38324 | 105.84658 | 39008 ft | 523 kts | 158° |
| 2026-04-30 10:54 | 27.31772 | 105.88188 | 39014 ft | 522 kts | 158° |
| 2026-04-30 10:55 | 27.25211 | 105.91715 | 39016 ft | 522 kts | 158° |
| 2026-04-30 10:55 | 27.18655 | 105.95234 | 39021 ft | 522 kts | 159° |
| 2026-04-30 10:56 | 27.12116 | 105.98740 | 39025 ft | 522 kts | 159° |
| 2026-04-30 10:56 | 27.05716 | 106.02624 | 39028 ft | 526 kts | 148° |
| 2026-04-30 10:57 | 27.02911 | 106.05269 | 39029 ft | 530 kts | 137° |
| 2026-04-30 10:57 | 27.00475 | 106.08388 | 39028 ft | 532 kts | 131° |
| 2026-04-30 10:57 | 26.95956 | 106.14978 | 39029 ft | 533 kts | 129° |
| 2026-04-30 10:58 | 26.91542 | 106.21658 | 39037 ft | 533 kts | 129° |
| 2026-04-30 10:58 | 26.87104 | 106.28312 | 39040 ft | 533 kts | 129° |
| 2026-04-30 10:59 | 26.82641 | 106.34931 | 39043 ft | 532 kts | 130° |
| 2026-04-30 10:59 | 26.78168 | 106.41534 | 39050 ft | 531 kts | 130° |
| 2026-04-30 11:00 | 26.73701 | 106.48117 | 39057 ft | 531 kts | 130° |
| 2026-04-30 11:00 | 26.69269 | 106.54640 | 39062 ft | 530 kts | 130° |
| 2026-04-30 11:01 | 26.64772 | 106.61252 | 39070 ft | 531 kts | 130° |
| 2026-04-30 11:01 | 26.60301 | 106.67817 | 39076 ft | 531 kts | 130° |
| 2026-04-30 11:02 | 26.55833 | 106.74369 | 39076 ft | 531 kts | 130° |
| 2026-04-30 11:02 | 26.51153 | 106.80714 | 39079 ft | 527 kts | 138° |
| 2026-04-30 11:03 | 26.46003 | 106.86530 | 39073 ft | 526 kts | 140° |
| 2026-04-30 11:04 | 26.38149 | 106.95110 | 39076 ft | 527 kts | 140° |
| 2026-04-30 11:04 | 26.32905 | 107.00835 | 39077 ft | 527 kts | 140° |
| 2026-04-30 11:05 | 26.27681 | 107.06558 | 39083 ft | 527 kts | 139° |
| 2026-04-30 11:05 | 26.22455 | 107.12305 | 39085 ft | 527 kts | 139° |
| 2026-04-30 11:06 | 26.17232 | 107.18040 | 39083 ft | 527 kts | 139° |
| 2026-04-30 11:06 | 26.12009 | 107.23764 | 39077 ft | 527 kts | 139° |
| 2026-04-30 11:07 | 26.06779 | 107.29487 | 39076 ft | 528 kts | 139° |
| 2026-04-30 11:07 | 26.01540 | 107.35215 | 39079 ft | 528 kts | 139° |
| 2026-04-30 11:08 | 25.96305 | 107.40931 | 39078 ft | 528 kts | 139° |
| 2026-04-30 11:08 | 25.91062 | 107.46647 | 39067 ft | 527 kts | 139° |
| 2026-04-30 11:09 | 25.85826 | 107.52348 | 39069 ft | 527 kts | 139° |
| 2026-04-30 11:09 | 25.80585 | 107.58047 | 39067 ft | 527 kts | 139° |
| 2026-04-30 11:10 | 25.75345 | 107.63738 | 39064 ft | 527 kts | 139° |
| 2026-04-30 11:10 | 25.70098 | 107.69433 | 39064 ft | 528 kts | 138° |
| 2026-04-30 11:11 | 25.64865 | 107.75162 | 39057 ft | 529 kts | 138° |
| 2026-04-30 11:11 | 25.59635 | 107.80892 | 39057 ft | 529 kts | 138° |
| 2026-04-30 11:12 | 25.54430 | 107.86585 | 39057 ft | 529 kts | 138° |
| 2026-04-30 11:12 | 25.49088 | 107.92175 | 39048 ft | 527 kts | 145° |
| 2026-04-30 11:13 | 25.42799 | 107.96081 | 39042 ft | 513 kts | 166° |
| 2026-04-30 11:13 | 25.35896 | 107.97628 | 39036 ft | 505 kts | 178° |
| 2026-04-30 11:14 | 25.28916 | 107.98466 | 39034 ft | 505 kts | 179° |
| 2026-04-30 11:14 | 25.21918 | 107.99241 | 39036 ft | 506 kts | 179° |
| 2026-04-30 11:15 | 25.14911 | 108.00063 | 39028 ft | 506 kts | 179° |
| 2026-04-30 11:15 | 25.07908 | 108.00914 | 39030 ft | 506 kts | 178° |
| 2026-04-30 11:16 | 25.00917 | 108.01768 | 39027 ft | 506 kts | 178° |
| 2026-04-30 11:16 | 24.93913 | 108.02621 | 39026 ft | 506 kts | 178° |
| 2026-04-30 11:17 | 24.86923 | 108.03470 | 39024 ft | 505 kts | 178° |
| 2026-04-30 11:17 | 24.79941 | 108.04316 | 39018 ft | 505 kts | 178° |
| 2026-04-30 11:18 | 24.72955 | 108.05161 | 39017 ft | 505 kts | 178° |
| 2026-04-30 11:18 | 24.62536 | 108.06421 | 39018 ft | 504 kts | 178° |
| 2026-04-30 11:19 | 24.55558 | 108.07263 | 39016 ft | 504 kts | 178° |
| 2026-04-30 11:19 | 24.48604 | 108.08113 | 39016 ft | 503 kts | 178° |
| 2026-04-30 11:20 | 24.41637 | 108.08959 | 39020 ft | 503 kts | 178° |
| 2026-04-30 11:20 | 24.34691 | 108.09803 | 39017 ft | 502 kts | 178° |
| 2026-04-30 11:21 | 24.27741 | 108.10646 | 39017 ft | 502 kts | 178° |
| 2026-04-30 11:21 | 24.20803 | 108.11487 | 39017 ft | 502 kts | 178° |
| 2026-04-30 11:22 | 24.13865 | 108.12328 | 39015 ft | 501 kts | 178° |
| 2026-04-30 11:22 | 24.06940 | 108.13165 | 39016 ft | 500 kts | 178° |
| 2026-04-30 11:23 | 24.00030 | 108.14000 | 39013 ft | 499 kts | 177° |
| 2026-04-30 11:24 | 23.89753 | 108.15861 | 39014 ft | 505 kts | 164° |
| 2026-04-30 11:24 | 23.83556 | 108.19518 | 39013 ft | 513 kts | 143° |
| 2026-04-30 11:25 | 23.78847 | 108.25362 | 39016 ft | 518 kts | 122° |
| 2026-04-30 11:25 | 23.77270 | 108.28906 | 39015 ft | 520 kts | 111° |
| 2026-04-30 11:25 | 23.75951 | 108.36646 | 39017 ft | 521 kts | 89° |
| 2026-04-30 11:26 | 23.77176 | 108.44385 | 39020 ft | 518 kts | 68° |
| 2026-04-30 11:26 | 23.79322 | 108.51899 | 39019 ft | 521 kts | 79° |
| 2026-04-30 11:27 | 23.79634 | 108.59755 | 39017 ft | 523 kts | 91° |
| 2026-04-30 11:27 | 23.79244 | 108.67683 | 39017 ft | 523 kts | 94° |
| 2026-04-30 11:28 | 23.78471 | 108.79587 | 39027 ft | 524 kts | 94° |
| 2026-04-30 11:29 | 23.77980 | 108.87524 | 39013 ft | 524 kts | 94° |
| 2026-04-30 11:29 | 23.77262 | 108.99440 | 39018 ft | 524 kts | 94° |
| 2026-04-30 11:30 | 23.76535 | 109.11413 | 39021 ft | 525 kts | 94° |
| 2026-04-30 11:31 | 23.75422 | 109.19227 | 39015 ft | 524 kts | 102° |
| 2026-04-30 11:31 | 23.73882 | 109.27065 | 39013 ft | 525 kts | 103° |
| 2026-04-30 11:32 | 23.72292 | 109.34835 | 39011 ft | 525 kts | 103° |
| 2026-04-30 11:32 | 23.70705 | 109.42607 | 39015 ft | 525 kts | 103° |
| 2026-04-30 11:33 | 23.68604 | 109.52950 | 39020 ft | 525 kts | 103° |
| 2026-04-30 11:33 | 23.67025 | 109.60719 | 39024 ft | 525 kts | 103° |
| 2026-04-30 11:34 | 23.65440 | 109.68485 | 39012 ft | 525 kts | 103° |
| 2026-04-30 11:34 | 23.63833 | 109.76252 | 39025 ft | 525 kts | 103° |
| 2026-04-30 11:35 | 23.62222 | 109.84010 | 39023 ft | 525 kts | 103° |
| 2026-04-30 11:35 | 23.60611 | 109.91768 | 39017 ft | 524 kts | 104° |
| 2026-04-30 11:36 | 23.58998 | 109.99524 | 39029 ft | 525 kts | 103° |
| 2026-04-30 11:36 | 23.57384 | 110.07270 | 39022 ft | 524 kts | 104° |
| 2026-04-30 11:37 | 23.55766 | 110.15013 | 39030 ft | 524 kts | 104° |
| 2026-04-30 11:37 | 23.54144 | 110.22751 | 39021 ft | 524 kts | 104° |
| 2026-04-30 11:38 | 23.52520 | 110.30479 | 39022 ft | 523 kts | 104° |
| 2026-04-30 11:38 | 23.50895 | 110.38203 | 39024 ft | 523 kts | 103° |
| 2026-04-30 11:39 | 23.49327 | 110.45894 | 39030 ft | 523 kts | 103° |
| 2026-04-30 11:39 | 23.47756 | 110.53675 | 39026 ft | 523 kts | 103° |
| 2026-04-30 11:40 | 23.46195 | 110.61353 | 39027 ft | 523 kts | 103° |
| 2026-04-30 11:40 | 23.44617 | 110.69073 | 39034 ft | 522 kts | 103° |
| 2026-04-30 11:41 | 23.43018 | 110.76845 | 39033 ft | 522 kts | 103° |
| 2026-04-30 11:41 | 23.41400 | 110.84497 | 39027 ft | 522 kts | 104° |
| 2026-04-30 11:42 | 23.39750 | 110.92248 | 39030 ft | 522 kts | 104° |
| 2026-04-30 11:42 | 23.38113 | 110.99954 | 39029 ft | 522 kts | 104° |
| 2026-04-30 11:43 | 23.36480 | 111.07640 | 39027 ft | 522 kts | 104° |
| 2026-04-30 11:43 | 23.34840 | 111.15344 | 39025 ft | 522 kts | 104° |
| 2026-04-30 11:44 | 23.33248 | 111.23042 | 39033 ft | 522 kts | 103° |
| 2026-04-30 11:44 | 23.31685 | 111.30755 | 39031 ft | 522 kts | 103° |
| 2026-04-30 11:45 | 23.30114 | 111.38456 | 39034 ft | 522 kts | 103° |
| 2026-04-30 11:45 | 23.28533 | 111.46152 | 39032 ft | 521 kts | 103° |
| 2026-04-30 11:46 | 23.26947 | 111.53840 | 39035 ft | 521 kts | 103° |
| 2026-04-30 11:46 | 23.25336 | 111.61535 | 39029 ft | 521 kts | 104° |
| 2026-04-30 11:47 | 23.23708 | 111.69167 | 39038 ft | 521 kts | 104° |
| 2026-04-30 11:47 | 23.22071 | 111.76847 | 39038 ft | 521 kts | 104° |
| 2026-04-30 11:48 | 23.20440 | 111.84514 | 39028 ft | 521 kts | 104° |
| 2026-04-30 11:48 | 23.18841 | 111.92195 | 39034 ft | 521 kts | 103° |
| 2026-04-30 11:49 | 23.17251 | 111.99871 | 39037 ft | 521 kts | 103° |
| 2026-04-30 11:49 | 23.15653 | 112.07544 | 39036 ft | 520 kts | 104° |
| 2026-04-30 11:50 | 23.14051 | 112.15203 | 39030 ft | 520 kts | 104° |
| 2026-04-30 11:50 | 23.12441 | 112.22873 | 39034 ft | 520 kts | 104° |
| 2026-04-30 11:51 | 23.10831 | 112.30523 | 39035 ft | 520 kts | 104° |
| 2026-04-30 11:51 | 23.09217 | 112.38180 | 39032 ft | 520 kts | 104° |
| 2026-04-30 11:52 | 23.07602 | 112.45824 | 39035 ft | 519 kts | 104° |
| 2026-04-30 11:52 | 23.06673 | 112.53606 | 39033 ft | 520 kts | 95° |
| 2026-04-30 11:53 | 23.06114 | 112.61424 | 39034 ft | 520 kts | 95° |
| 2026-04-30 11:53 | 23.05602 | 112.69270 | 39032 ft | 521 kts | 95° |
| 2026-04-30 11:54 | 23.05082 | 112.77104 | 39028 ft | 521 kts | 95° |
| 2026-04-30 11:54 | 23.04547 | 112.84960 | 39025 ft | 521 kts | 95° |
| 2026-04-30 11:55 | 23.04009 | 112.92761 | 39026 ft | 522 kts | 95° |
| 2026-04-30 11:55 | 23.03463 | 113.00609 | 39023 ft | 522 kts | 95° |
| 2026-04-30 11:56 | 23.02912 | 113.08464 | 39021 ft | 522 kts | 95° |
| 2026-04-30 11:56 | 23.01583 | 113.16170 | 39021 ft | 519 kts | 111° |
| 2026-04-30 11:57 | 23.00114 | 113.19735 | 39016 ft | 516 kts | 122° |
| 2026-04-30 11:57 | 22.98115 | 113.22933 | 39018 ft | 512 kts | 133° |
| 2026-04-30 11:57 | 22.93157 | 113.28432 | 39010 ft | 509 kts | 140° |
| 2026-04-30 11:58 | 22.87971 | 113.33665 | 39011 ft | 509 kts | 140° |
| 2026-04-30 11:58 | 22.82772 | 113.38896 | 39008 ft | 509 kts | 140° |
| 2026-04-30 11:59 | 22.77609 | 113.44146 | 39007 ft | 509 kts | 140° |
| 2026-04-30 11:59 | 22.72452 | 113.49413 | 39009 ft | 509 kts | 140° |
| 2026-04-30 12:00 | 22.67304 | 113.54670 | 39012 ft | 509 kts | 140° |
| 2026-04-30 12:00 | 22.62150 | 113.59925 | 39011 ft | 508 kts | 140° |
| 2026-04-30 12:01 | 22.56996 | 113.65172 | 39017 ft | 508 kts | 140° |
| 2026-04-30 12:01 | 22.51846 | 113.70409 | 39017 ft | 508 kts | 140° |
| 2026-04-30 12:02 | 22.46695 | 113.75642 | 39012 ft | 508 kts | 140° |
| 2026-04-30 12:02 | 22.41548 | 113.80866 | 39017 ft | 508 kts | 140° |
| 2026-04-30 12:03 | 22.33841 | 113.88730 | 39021 ft | 509 kts | 138° |
| 2026-04-30 12:04 | 22.29037 | 113.94360 | 39023 ft | 510 kts | 135° |
| 2026-04-30 12:04 | 22.24331 | 114.00105 | 39020 ft | 510 kts | 135° |
| 2026-04-30 12:05 | 22.19663 | 114.05803 | 39020 ft | 511 kts | 132° |
| 2026-04-30 12:05 | 22.15287 | 114.11875 | 39023 ft | 513 kts | 130° |
| 2026-04-30 12:06 | 22.10982 | 114.18010 | 39021 ft | 513 kts | 130° |
| 2026-04-30 12:06 | 22.06617 | 114.24097 | 39027 ft | 513 kts | 131° |
| 2026-04-30 12:07 | 22.02266 | 114.30076 | 39032 ft | 513 kts | 131° |
| 2026-04-30 12:07 | 21.97846 | 114.36124 | 39034 ft | 514 kts | 131° |
| 2026-04-30 12:08 | 21.93417 | 114.42181 | 39034 ft | 515 kts | 131° |
| 2026-04-30 12:08 | 21.88987 | 114.48237 | 39033 ft | 515 kts | 131° |
| 2026-04-30 12:09 | 21.84548 | 114.54300 | 39039 ft | 516 kts | 131° |
| 2026-04-30 12:09 | 21.80108 | 114.60358 | 39035 ft | 516 kts | 131° |
| 2026-04-30 12:10 | 21.75657 | 114.66425 | 39035 ft | 516 kts | 131° |
| 2026-04-30 12:10 | 21.71203 | 114.72487 | 39033 ft | 516 kts | 131° |
| 2026-04-30 12:11 | 21.66747 | 114.78546 | 39035 ft | 517 kts | 131° |
| 2026-04-30 12:11 | 21.62286 | 114.84606 | 39032 ft | 517 kts | 131° |
| 2026-04-30 12:12 | 21.57819 | 114.90667 | 39043 ft | 518 kts | 131° |
| 2026-04-30 12:12 | 21.53341 | 114.96735 | 39042 ft | 518 kts | 131° |
| 2026-04-30 12:13 | 21.48887 | 115.02765 | 39038 ft | 519 kts | 131° |
| 2026-04-30 12:13 | 21.44399 | 115.08834 | 39023 ft | 519 kts | 131° |
| 2026-04-30 12:14 | 21.39902 | 115.14909 | 39036 ft | 520 kts | 131° |
| 2026-04-30 12:14 | 21.35403 | 115.20979 | 39032 ft | 520 kts | 131° |
| 2026-04-30 12:15 | 21.30899 | 115.27049 | 39030 ft | 520 kts | 131° |
| 2026-04-30 12:15 | 21.26388 | 115.33128 | 39029 ft | 521 kts | 132° |
| 2026-04-30 12:16 | 21.22432 | 115.39686 | 39029 ft | 525 kts | 123° |
| 2026-04-30 12:16 | 21.18778 | 115.46473 | 39028 ft | 526 kts | 122° |
| 2026-04-30 12:17 | 21.13963 | 115.55550 | 39024 ft | 527 kts | 122° |
| 2026-04-30 12:17 | 21.09710 | 115.63517 | 39025 ft | 527 kts | 122° |
| 2026-04-30 12:18 | 21.06674 | 115.69180 | 39024 ft | 528 kts | 122° |
| 2026-04-30 12:18 | 21.03009 | 115.76006 | 39021 ft | 528 kts | 122° |
| 2026-04-30 12:19 | 20.99349 | 115.82813 | 39019 ft | 528 kts | 122° |
| 2026-04-30 12:19 | 20.95680 | 115.89632 | 39018 ft | 528 kts | 122° |
| 2026-04-30 12:20 | 20.92004 | 115.96453 | 39020 ft | 529 kts | 122° |
| 2026-04-30 12:20 | 20.88328 | 116.03269 | 39020 ft | 529 kts | 122° |
| 2026-04-30 12:21 | 20.84095 | 116.09631 | 39016 ft | 521 kts | 138° |
| 2026-04-30 12:21 | 20.81394 | 116.12170 | 39019 ft | 515 kts | 149° |
| 2026-04-30 12:21 | 20.78463 | 116.14351 | 39017 ft | 513 kts | 151° |
| 2026-04-30 12:22 | 20.72451 | 116.18454 | 39018 ft | 513 kts | 152° |
| 2026-04-30 12:22 | 20.66397 | 116.22478 | 39015 ft | 513 kts | 152° |
| 2026-04-30 12:23 | 20.60353 | 116.26528 | 39011 ft | 513 kts | 152° |
| 2026-04-30 12:23 | 20.54321 | 116.30599 | 39010 ft | 513 kts | 152° |
| 2026-04-30 12:24 | 20.48287 | 116.34677 | 39009 ft | 513 kts | 152° |
| 2026-04-30 12:24 | 20.42259 | 116.38748 | 39011 ft | 513 kts | 152° |
| 2026-04-30 12:25 | 20.36225 | 116.42817 | 39007 ft | 513 kts | 152° |
| 2026-04-30 12:25 | 20.30196 | 116.46877 | 39006 ft | 513 kts | 152° |
| 2026-04-30 12:26 | 20.24157 | 116.50941 | 39004 ft | 513 kts | 152° |
| 2026-04-30 12:26 | 20.18130 | 116.54993 | 39004 ft | 512 kts | 152° |
| 2026-04-30 12:27 | 20.12100 | 116.59043 | 39006 ft | 512 kts | 152° |
| 2026-04-30 12:27 | 20.06080 | 116.63083 | 39001 ft | 512 kts | 152° |
| 2026-04-30 12:28 | 20.00184 | 116.67349 | 39001 ft | 517 kts | 143° |
| 2026-04-30 12:28 | 19.95108 | 116.72736 | 38999 ft | 520 kts | 136° |
| 2026-04-30 12:29 | 19.90218 | 116.78416 | 39001 ft | 521 kts | 135° |
| 2026-04-30 12:29 | 19.85359 | 116.84117 | 39002 ft | 520 kts | 135° |
| 2026-04-30 12:30 | 19.80481 | 116.89796 | 38998 ft | 520 kts | 136° |
| 2026-04-30 12:30 | 19.75600 | 116.95447 | 38996 ft | 519 kts | 136° |
| 2026-04-30 12:31 | 19.70708 | 117.01099 | 38994 ft | 519 kts | 136° |
| 2026-04-30 12:31 | 19.65822 | 117.06739 | 38995 ft | 519 kts | 136° |
| 2026-04-30 12:32 | 19.60941 | 117.12369 | 38994 ft | 519 kts | 136° |
| 2026-04-30 12:32 | 19.56055 | 117.18000 | 38994 ft | 518 kts | 136° |
| 2026-04-30 12:33 | 19.51175 | 117.23619 | 38992 ft | 518 kts | 136° |
| 2026-04-30 12:33 | 19.46318 | 117.29205 | 38992 ft | 517 kts | 136° |
| 2026-04-30 12:34 | 19.41446 | 117.34805 | 38994 ft | 517 kts | 136° |
| 2026-04-30 12:34 | 19.36574 | 117.40398 | 38990 ft | 516 kts | 136° |
| 2026-04-30 12:35 | 19.31702 | 117.45986 | 38990 ft | 516 kts | 136° |
| 2026-04-30 12:35 | 19.26839 | 117.51559 | 38989 ft | 515 kts | 136° |
| 2026-04-30 12:36 | 19.21985 | 117.57117 | 38991 ft | 514 kts | 136° |
| 2026-04-30 12:36 | 19.17135 | 117.62664 | 38989 ft | 513 kts | 136° |
| 2026-04-30 12:37 | 19.12290 | 117.68199 | 38988 ft | 512 kts | 136° |
| 2026-04-30 12:37 | 19.07454 | 117.73721 | 38989 ft | 511 kts | 136° |
| 2026-04-30 12:38 | 19.02626 | 117.79229 | 38991 ft | 510 kts | 136° |
| 2026-04-30 12:38 | 18.97795 | 117.84734 | 38989 ft | 510 kts | 136° |
| 2026-04-30 12:39 | 18.92980 | 117.90215 | 38987 ft | 509 kts | 136° |
| 2026-04-30 12:39 | 18.88170 | 117.95686 | 38993 ft | 508 kts | 136° |
| 2026-04-30 12:40 | 18.83393 | 118.01114 | 38993 ft | 507 kts | 136° |
| 2026-04-30 12:40 | 18.78597 | 118.06559 | 38990 ft | 506 kts | 136° |
| 2026-04-30 12:41 | 18.73796 | 118.12005 | 38990 ft | 506 kts | 136° |
| 2026-04-30 12:41 | 18.69006 | 118.17434 | 38990 ft | 506 kts | 136° |
| 2026-04-30 12:42 | 18.64206 | 118.22868 | 38989 ft | 506 kts | 136° |
| 2026-04-30 12:42 | 18.59412 | 118.28293 | 38992 ft | 506 kts | 136° |
| 2026-04-30 12:43 | 18.54612 | 118.33718 | 38991 ft | 506 kts | 136° |
| 2026-04-30 12:43 | 18.49808 | 118.39144 | 38989 ft | 506 kts | 137° |
| 2026-04-30 12:44 | 18.45005 | 118.44562 | 38987 ft | 506 kts | 137° |
| 2026-04-30 12:44 | 18.40195 | 118.49985 | 38987 ft | 506 kts | 137° |
| 2026-04-30 12:45 | 18.35390 | 118.55397 | 38986 ft | 506 kts | 137° |
| 2026-04-30 12:45 | 18.30576 | 118.60815 | 38984 ft | 506 kts | 137° |
| 2026-04-30 12:46 | 18.25773 | 118.66215 | 38986 ft | 506 kts | 137° |
| 2026-04-30 12:46 | 18.20966 | 118.71615 | 38981 ft | 505 kts | 137° |
| 2026-04-30 12:47 | 18.16159 | 118.77011 | 38983 ft | 505 kts | 137° |
| 2026-04-30 12:47 | 18.11358 | 118.82395 | 38983 ft | 504 kts | 137° |
| 2026-04-30 12:48 | 18.06596 | 118.87731 | 38984 ft | 504 kts | 137° |
| 2026-04-30 12:48 | 18.01797 | 118.93101 | 38983 ft | 503 kts | 137° |
| 2026-04-30 12:49 | 17.96363 | 118.97556 | 38974 ft | 492 kts | 153° |
| 2026-04-30 12:49 | 17.90431 | 119.01123 | 38978 ft | 491 kts | 155° |
| 2026-04-30 12:50 | 17.84434 | 119.04554 | 38980 ft | 490 kts | 156° |
| 2026-04-30 12:50 | 17.78451 | 119.07980 | 38983 ft | 490 kts | 155° |
| 2026-04-30 12:51 | 17.72481 | 119.11425 | 38989 ft | 489 kts | 155° |
| 2026-04-30 12:51 | 17.66530 | 119.14869 | 38983 ft | 488 kts | 155° |
| 2026-04-30 12:52 | 17.60579 | 119.18310 | 38982 ft | 488 kts | 155° |
| 2026-04-30 12:52 | 17.54648 | 119.21729 | 39122 ft | 487 kts | 155° |
| 2026-04-30 12:53 | 17.51680 | 119.23441 | 39004 ft | 487 kts | 155° |
| 2026-04-30 12:53 | 17.48706 | 119.25158 | 38981 ft | 487 kts | 155° |
| 2026-04-30 12:53 | 17.42814 | 119.28562 | 38969 ft | 486 kts | 155° |
| 2026-04-30 12:54 | 17.36842 | 119.32006 | 38969 ft | 486 kts | 155° |
| 2026-04-30 12:54 | 17.30953 | 119.35398 | 38974 ft | 486 kts | 155° |
| 2026-04-30 12:55 | 17.25024 | 119.38810 | 38970 ft | 486 kts | 155° |
| 2026-04-30 12:55 | 17.19106 | 119.42213 | 38973 ft | 485 kts | 155° |
| 2026-04-30 12:56 | 17.13186 | 119.45614 | 38969 ft | 485 kts | 155° |
| 2026-04-30 12:56 | 17.07267 | 119.49012 | 38968 ft | 485 kts | 155° |
| 2026-04-30 12:57 | 17.01360 | 119.52402 | 38962 ft | 485 kts | 155° |
| 2026-04-30 12:57 | 16.95450 | 119.55791 | 38967 ft | 484 kts | 155° |
| 2026-04-30 12:58 | 16.89535 | 119.59179 | 38959 ft | 484 kts | 155° |
| 2026-04-30 12:58 | 16.83677 | 119.62534 | 38964 ft | 484 kts | 155° |
| 2026-04-30 12:59 | 16.77781 | 119.65907 | 38957 ft | 483 kts | 155° |
| 2026-04-30 12:59 | 16.71885 | 119.69278 | 38956 ft | 483 kts | 155° |
| 2026-04-30 13:00 | 16.65993 | 119.72644 | 38955 ft | 483 kts | 155° |
| 2026-04-30 13:00 | 16.60102 | 119.76008 | 38952 ft | 483 kts | 155° |
| 2026-04-30 13:01 | 16.54205 | 119.79372 | 38953 ft | 482 kts | 155° |
| 2026-04-30 13:01 | 16.48320 | 119.82727 | 38952 ft | 482 kts | 155° |
| 2026-04-30 13:02 | 16.42426 | 119.86084 | 38945 ft | 482 kts | 155° |
| 2026-04-30 13:02 | 16.36538 | 119.89437 | 38948 ft | 482 kts | 155° |
| 2026-04-30 13:03 | 16.31645 | 119.92221 | 38945 ft | 483 kts | 155° |
| 2026-04-30 13:03 | 16.25747 | 119.95575 | 38705 ft | 482 kts | 155° |
| 2026-04-30 13:04 | 16.22805 | 119.97247 | 38453 ft | 482 kts | 155° |
| 2026-04-30 13:04 | 16.19856 | 119.98922 | 38185 ft | 483 kts | 154° |
| 2026-04-30 13:04 | 16.16905 | 120.00598 | 37918 ft | 484 kts | 154° |
| 2026-04-30 13:04 | 16.13952 | 120.02274 | 37648 ft | 485 kts | 154° |
| 2026-04-30 13:05 | 16.08149 | 120.05576 | 37578 ft | 462 kts | 154° |
| 2026-04-30 13:05 | 16.05372 | 120.07166 | 37523 ft | 450 kts | 154° |
| 2026-04-30 13:06 | 15.99924 | 120.10295 | 36848 ft | 444 kts | 154° |
| 2026-04-30 13:06 | 15.97222 | 120.11848 | 36738 ft | 444 kts | 154° |
| 2026-04-30 13:06 | 15.94521 | 120.13402 | 36737 ft | 444 kts | 154° |
| 2026-04-30 13:07 | 15.89074 | 120.16534 | 36744 ft | 454 kts | 154° |
| 2026-04-30 13:07 | 15.83447 | 120.19757 | 36754 ft | 470 kts | 154° |
| 2026-04-30 13:08 | 15.77653 | 120.23061 | 36786 ft | 485 kts | 154° |
| 2026-04-30 13:08 | 15.71639 | 120.26478 | 36780 ft | 490 kts | 154° |
| 2026-04-30 13:09 | 15.65701 | 120.29850 | 36778 ft | 490 kts | 154° |
| 2026-04-30 13:09 | 15.59722 | 120.33247 | 36772 ft | 490 kts | 154° |
| 2026-04-30 13:10 | 15.53742 | 120.36643 | 36780 ft | 490 kts | 154° |
| 2026-04-30 13:10 | 15.47768 | 120.40035 | 36778 ft | 490 kts | 154° |
| 2026-04-30 13:11 | 15.41791 | 120.43427 | 36776 ft | 490 kts | 154° |
| 2026-04-30 13:11 | 15.35814 | 120.46817 | 36776 ft | 490 kts | 154° |
| 2026-04-30 13:12 | 15.29838 | 120.50206 | 36776 ft | 490 kts | 154° |
| 2026-04-30 13:12 | 15.23863 | 120.53596 | 36764 ft | 490 kts | 154° |
| 2026-04-30 13:13 | 15.14895 | 120.58682 | 36758 ft | 490 kts | 154° |
| 2026-04-30 13:14 | 15.05923 | 120.63769 | 36764 ft | 488 kts | 154° |
| 2026-04-30 13:14 | 15.02983 | 120.65438 | 36556 ft | 478 kts | 154° |
| 2026-04-30 13:14 | 14.97118 | 120.68642 | 35534 ft | 483 kts | 156° |
| 2026-04-30 13:15 | 14.94085 | 120.70137 | 34780 ft | 485 kts | 157° |
| 2026-04-30 13:15 | 14.87908 | 120.73137 | 33145 ft | 495 kts | 157° |
| 2026-04-30 13:15 | 14.84775 | 120.74647 | 32303 ft | 498 kts | 157° |
| 2026-04-30 13:16 | 14.81622 | 120.76156 | 31478 ft | 502 kts | 157° |
| 2026-04-30 13:16 | 14.78436 | 120.77670 | 30696 ft | 505 kts | 157° |
| 2026-04-30 13:16 | 14.75192 | 120.79092 | 29760 ft | 507 kts | 163° |
| 2026-04-30 13:17 | 14.68284 | 120.79568 | 27715 ft | 496 kts | 192° |
| 2026-04-30 13:17 | 14.65040 | 120.78451 | 26736 ft | 489 kts | 207° |
| 2026-04-30 13:17 | 14.60114 | 120.74056 | 24887 ft | 454 kts | 234° |
| 2026-04-30 13:18 | 14.58397 | 120.71397 | 24012 ft | 438 kts | 237° |
| 2026-04-30 13:18 | 14.55222 | 120.66169 | 21465 ft | 424 kts | 237° |
| 2026-04-30 13:18 | 14.53688 | 120.63602 | 20153 ft | 419 kts | 237° |
| 2026-04-30 13:19 | 14.52171 | 120.61050 | 18922 ft | 414 kts | 237° |
| 2026-04-30 13:19 | 14.50677 | 120.58533 | 17635 ft | 409 kts | 237° |
| 2026-04-30 13:19 | 14.49199 | 120.56043 | 16279 ft | 404 kts | 237° |
| 2026-04-30 13:19 | 14.47739 | 120.53590 | 14985 ft | 398 kts | 237° |
| 2026-04-30 13:20 | 14.46311 | 120.51203 | 13751 ft | 393 kts | 237° |
| 2026-04-30 13:20 | 14.44881 | 120.48824 | 12402 ft | 387 kts | 237° |
| 2026-04-30 13:20 | 14.43473 | 120.46482 | 11196 ft | 380 kts | 237° |
| 2026-04-30 13:20 | 14.42037 | 120.44272 | 10312 ft | 363 kts | 230° |
| 2026-04-30 13:21 | 14.40182 | 120.42610 | 9420 ft | 346 kts | 208° |
| 2026-04-30 13:21 | 14.37983 | 120.41772 | 8473 ft | 332 kts | 187° |
| 2026-04-30 13:21 | 14.35733 | 120.41825 | 7563 ft | 318 kts | 165° |
| 2026-04-30 13:22 | 14.31848 | 120.43685 | 5830 ft | 301 kts | 148° |
| 2026-04-30 13:22 | 14.30069 | 120.44720 | 5274 ft | 286 kts | 147° |
| 2026-04-30 13:22 | 14.27025 | 120.46729 | 4983 ft | 230 kts | 133° |
| 2026-04-30 13:23 | 14.26077 | 120.47958 | 4957 ft | 215 kts | 116° |
| 2026-04-30 13:23 | 14.25656 | 120.50877 | 4873 ft | 209 kts | 75° |
| 2026-04-30 13:24 | 14.26715 | 120.53660 | 4695 ft | 210 kts | 67° |
| 2026-04-30 13:24 | 14.27566 | 120.55735 | 4537 ft | 209 kts | 67° |
| 2026-04-30 13:25 | 14.28676 | 120.58490 | 4291 ft | 209 kts | 68° |
| 2026-04-30 13:25 | 14.29776 | 120.61241 | 4047 ft | 202 kts | 68° |
| 2026-04-30 13:26 | 14.31327 | 120.65130 | 3672 ft | 194 kts | 68° |
| 2026-04-30 13:26 | 14.32349 | 120.67691 | 3429 ft | 194 kts | 69° |
| 2026-04-30 13:27 | 14.33423 | 120.70226 | 3276 ft | 192 kts | 71° |
| 2026-04-30 13:28 | 14.35168 | 120.73947 | 3261 ft | 192 kts | 62° |
| 2026-04-30 13:28 | 14.36504 | 120.76329 | 3258 ft | 192 kts | 61° |
| 2026-04-30 13:28 | 14.37174 | 120.77525 | 3257 ft | 192 kts | 62° |
| 2026-04-30 13:29 | 14.38513 | 120.79920 | 3258 ft | 192 kts | 61° |
| 2026-04-30 13:29 | 14.39854 | 120.82313 | 3256 ft | 193 kts | 61° |
| 2026-04-30 13:30 | 14.41868 | 120.85912 | 3173 ft | 198 kts | 61° |
| 2026-04-30 13:31 | 14.43307 | 120.88475 | 2530 ft | 217 kts | 60° |
| 2026-04-30 13:31 | 14.45476 | 120.92336 | 1769 ft | 189 kts | 61° |
| 2026-04-30 13:32 | 14.46699 | 120.94528 | 1251 ft | 160 kts | 61° |
| 2026-04-30 13:32 | 14.47751 | 120.96313 | 884 ft | 138 kts | 60° |
| 2026-04-30 13:33 | 14.48726 | 120.98088 | 569 ft | 145 kts | 64° |
| 2026-04-30 13:33 | 14.49731 | 120.99904 | 176 ft | 143 kts | 62° |
| 2026-04-30 13:34 | 14.50214 | 121.00771 | 71 ft | 133 kts | 63° |
| 2026-04-30 13:34 | 14.50827 | 121.01764 | 46 ft | 8 kts | 37° |
| 2026-04-30 13:35 | 14.50878 | 121.01774 | 42 ft | 9 kts | 330° |
| 2026-04-30 13:35 | 14.50882 | 121.01706 | 43 ft | 3 kts | 252° |
| 2026-04-30 13:36 | 14.50861 | 121.01659 | 47 ft | 14 kts | 244° |
| 2026-04-30 13:36 | 14.50816 | 121.01578 | 52 ft | 12 kts | 238° |
| 2026-04-30 13:36 | 14.50731 | 121.01433 | 54 ft | 12 kts | 239° |
| 2026-04-30 13:37 | 14.50689 | 121.01357 | 53 ft | 12 kts | 247° |
| 2026-04-30 13:37 | 14.50613 | 121.01217 | 60 ft | 10 kts | 240° |
| 2026-04-30 13:38 | 14.50553 | 121.01109 | 59 ft | 8 kts | 240° |
| 2026-04-30 13:38 | 14.50525 | 121.01060 | 58 ft | 7 kts | 240° |
| 2026-04-30 13:38 | 14.50469 | 121.00959 | 61 ft | 10 kts | 240° |
| 2026-04-30 13:39 | 14.50403 | 121.00821 | 67 ft | 9 kts | 260° |
| 2026-04-30 13:39 | 14.50376 | 121.00705 | 73 ft | 8 kts | 272° |
| 2026-04-30 13:40 | 14.50375 | 121.00639 | 72 ft | 10 kts | 264° |
| 2026-04-30 13:40 | 14.50347 | 121.00581 | 66 ft | 9 kts | 231° |
| 2026-04-30 13:40 | 14.50333 | 121.00533 | 72 ft | 4 kts | 289° |
| 2026-04-30 13:40 | 14.50341 | 121.00522 | 65 ft | 3 kts | 298° |
| 2026-04-30 13:41 | 14.50359 | 121.00494 | 66 ft | 0 kts | 307° |